<?xml version='1.0' encoding='UTF-8'?><gpx version="1.1" creator="JPX - https://github.com/jenetics/jpx" xmlns="http://www.topografix.com/GPX/1/1"><trk><trkseg><trkpt lat="44.101119254093604" lon="9.92964785921835"><ele>12.999999999999998</ele><time>2026-03-23T15:57:01Z</time></trkpt><trkpt lat="44.101059296117874" lon="9.929700065473384"><ele>13.0</ele><time>2026-03-23T15:57:03Z</time></trkpt><trkpt lat="44.10099390118223" lon="9.929778596162189"><ele>13.0</ele><time>2026-03-23T15:57:06Z</time></trkpt><trkpt lat="44.1009477653611" lon="9.929876670003843"><ele>13.0</ele><time>2026-03-23T15:57:09Z</time></trkpt><trkpt lat="44.100897313852904" lon="9.929936255939216"><ele>12.999999999999998</ele><time>2026-03-23T15:57:13Z</time></trkpt><trkpt lat="44.10094534975286" lon="9.929857989746196"><ele>13.0</ele><time>2026-03-23T15:57:16Z</time></trkpt><trkpt lat="44.101002163255366" lon="9.929789018649807"><ele>12.999999999999998</ele><time>2026-03-23T15:57:20Z</time></trkpt><trkpt lat="44.10106028791964" lon="9.929710799952442"><ele>13.0</ele><time>2026-03-23T15:57:24Z</time></trkpt><trkpt lat="44.101134419211924" lon="9.929657594739808"><ele>13.0</ele><time>2026-03-23T15:57:27Z</time></trkpt><trkpt lat="44.101204057966484" lon="9.929635412119973"><ele>13.0</ele><time>2026-03-23T15:57:30Z</time></trkpt><trkpt lat="44.101269424453456" lon="9.929597733021353"><ele>12.999999999999998</ele><time>2026-03-23T15:57:34Z</time></trkpt><trkpt lat="44.10133326749964" lon="9.929550980566393"><ele>13.0</ele><time>2026-03-23T15:58:18Z</time></trkpt><trkpt lat="44.101411008665856" lon="9.929499893327169"><ele>12.999999999999998</ele><time>2026-03-23T15:58:21Z</time></trkpt><trkpt lat="44.101445781812686" lon="9.929416181192952"><ele>13.0</ele><time>2026-03-23T15:58:23Z</time></trkpt><trkpt lat="44.10149314305184" lon="9.929302085017868"><ele>13.0</ele><time>2026-03-23T15:58:26Z</time></trkpt><trkpt lat="44.101558183230544" lon="9.929202317931091"><ele>13.0</ele><time>2026-03-23T15:58:29Z</time></trkpt><trkpt lat="44.101602393334495" lon="9.929124992202993"><ele>12.999999999999998</ele><time>2026-03-23T15:58:31Z</time></trkpt><trkpt lat="44.101669094210344" lon="9.92911751603326"><ele>13.0</ele><time>2026-03-23T15:58:33Z</time></trkpt><trkpt lat="44.1017527295151" lon="9.92906697064002"><ele>13.714285714285714</ele><time>2026-03-23T15:58:36Z</time></trkpt><trkpt lat="44.10182092733603" lon="9.929070391464498"><ele>14.42857142857143</ele><time>2026-03-23T15:58:38Z</time></trkpt><trkpt lat="44.10188470437046" lon="9.929058969810123"><ele>15.142857142857144</ele><time>2026-03-23T15:58:40Z</time></trkpt><trkpt lat="44.101948867932336" lon="9.929060629737867"><ele>15.857142857142858</ele><time>2026-03-23T15:58:42Z</time></trkpt><trkpt lat="44.10203783561079" lon="9.92905218165252"><ele>16.571428571428573</ele><time>2026-03-23T15:58:45Z</time></trkpt><trkpt lat="44.10211387189222" lon="9.92907810967302"><ele>17.28571428571429</ele><time>2026-03-23T15:58:48Z</time></trkpt><trkpt lat="44.102185809043235" lon="9.929111332063803"><ele>18.0</ele><time>2026-03-23T15:58:51Z</time></trkpt><trkpt lat="44.102251738456715" lon="9.929126640007892"><ele>18.0</ele><time>2026-03-23T15:58:57Z</time></trkpt><trkpt lat="44.10232310662757" lon="9.928940092745393"><ele>18.0</ele><time>2026-03-23T15:59:00Z</time></trkpt><trkpt lat="44.10235249144556" lon="9.928829421414726"><ele>18.0</ele><time>2026-03-23T15:59:03Z</time></trkpt><trkpt lat="44.10237770339502" lon="9.928735504271048"><ele>18.0</ele><time>2026-03-23T15:59:06Z</time></trkpt><trkpt lat="44.10241594244941" lon="9.928635152552257"><ele>18.0</ele><time>2026-03-23T15:59:09Z</time></trkpt><trkpt lat="44.10242741024685" lon="9.928523790684709"><ele>18.0</ele><time>2026-03-23T15:59:12Z</time></trkpt><trkpt lat="44.1024031077705" lon="9.928405534639397"><ele>18.0</ele><time>2026-03-23T15:59:15Z</time></trkpt><trkpt lat="44.10238121813883" lon="9.928303718914485"><ele>18.0</ele><time>2026-03-23T15:59:18Z</time></trkpt><trkpt lat="44.102371227048884" lon="9.928212826842316"><ele>18.0</ele><time>2026-03-23T15:59:25Z</time></trkpt><trkpt lat="44.102451143757236" lon="9.928123352543759"><ele>18.0</ele><time>2026-03-23T15:59:54Z</time></trkpt><trkpt lat="44.10251275245405" lon="9.928092086138093"><ele>18.0</ele><time>2026-03-23T15:59:56Z</time></trkpt><trkpt lat="44.102532478038135" lon="9.92798384694905"><ele>19.666666666666668</ele><time>2026-03-23T15:59:59Z</time></trkpt><trkpt lat="44.10260858734614" lon="9.927967878354812"><ele>21.333333333333336</ele><time>2026-03-23T16:00:01Z</time></trkpt><trkpt lat="44.10267214593393" lon="9.927901886950774"><ele>23.0</ele><time>2026-03-23T16:00:04Z</time></trkpt><trkpt lat="44.102737754486505" lon="9.927901860313343"><ele>24.666666666666668</ele><time>2026-03-23T16:00:06Z</time></trkpt><trkpt lat="44.102793134788776" lon="9.92784334060217"><ele>26.333333333333336</ele><time>2026-03-23T16:00:09Z</time></trkpt><trkpt lat="44.10287481058043" lon="9.92775005832661"><ele>28.0</ele><time>2026-03-23T16:00:14Z</time></trkpt><trkpt lat="44.10292331452401" lon="9.927687942967058"><ele>28.000000000000004</ele><time>2026-03-23T16:00:17Z</time></trkpt><trkpt lat="44.10297155445056" lon="9.927617527267556"><ele>28.0</ele><time>2026-03-23T16:00:20Z</time></trkpt><trkpt lat="44.103013526732695" lon="9.92753953342918"><ele>28.0</ele><time>2026-03-23T16:00:23Z</time></trkpt><trkpt lat="44.10306760346383" lon="9.927452058463288"><ele>28.0</ele><time>2026-03-23T16:00:28Z</time></trkpt><trkpt lat="44.10310594511305" lon="9.927259142099212"><ele>28.000000000000004</ele><time>2026-03-23T16:00:33Z</time></trkpt><trkpt lat="44.103068461265664" lon="9.927180484851181"><ele>28.0</ele><time>2026-03-23T16:00:37Z</time></trkpt><trkpt lat="44.103034629858406" lon="9.927106449476526"><ele>29.42857142857143</ele><time>2026-03-23T16:00:41Z</time></trkpt><trkpt lat="44.10299574522286" lon="9.927023131001109"><ele>30.857142857142858</ele><time>2026-03-23T16:00:45Z</time></trkpt><trkpt lat="44.10296011201447" lon="9.926936568872904"><ele>32.285714285714285</ele><time>2026-03-23T16:00:49Z</time></trkpt><trkpt lat="44.10293470172195" lon="9.926854534576757"><ele>33.714285714285715</ele><time>2026-03-23T16:00:53Z</time></trkpt><trkpt lat="44.102937052347364" lon="9.926765063682396"><ele>35.142857142857146</ele><time>2026-03-23T16:02:04.999Z</time></trkpt><trkpt lat="44.10292613246704" lon="9.926859623348564"><ele>36.57142857142857</ele><time>2026-03-23T16:02:44.999Z</time></trkpt><trkpt lat="44.10296543907337" lon="9.926951405340965"><ele>38.0</ele><time>2026-03-23T16:02:48.999Z</time></trkpt><trkpt lat="44.10300971533194" lon="9.927052853192333"><ele>38.0</ele><time>2026-03-23T16:02:51.999Z</time></trkpt><trkpt lat="44.103069786289694" lon="9.927182188712239"><ele>38.0</ele><time>2026-03-23T16:02:54.999Z</time></trkpt><trkpt lat="44.10310696972354" lon="9.927264138385715"><ele>38.0</ele><time>2026-03-23T16:02:56.999Z</time></trkpt><trkpt lat="44.10300924674181" lon="9.927437910550234"><ele>38.0</ele><time>2026-03-23T16:03:01.999Z</time></trkpt><trkpt lat="44.1029579039924" lon="9.92750623595848"><ele>38.0</ele><time>2026-03-23T16:03:03.999Z</time></trkpt><trkpt lat="44.10292250800524" lon="9.927629699904573"><ele>36.0</ele><time>2026-03-23T16:03:05.999Z</time></trkpt><trkpt lat="44.102846270017636" lon="9.927741793370219"><ele>34.0</ele><time>2026-03-23T16:03:07.999Z</time></trkpt><trkpt lat="44.1027806055737" lon="9.927812908111223"><ele>31.999999999999996</ele><time>2026-03-23T16:03:09.999Z</time></trkpt><trkpt lat="44.102722158773524" lon="9.927874441486118"><ele>30.0</ele><time>2026-03-23T16:03:11.999Z</time></trkpt><trkpt lat="44.10264739507258" lon="9.927952531364546"><ele>28.0</ele><time>2026-03-23T16:03:13.999Z</time></trkpt><trkpt lat="44.1025661719805" lon="9.92804660721646"><ele>28.0</ele><time>2026-03-23T16:03:15.999Z</time></trkpt><trkpt lat="44.10250400493932" lon="9.928123010184196"><ele>27.999999999999996</ele><time>2026-03-23T16:03:17.999Z</time></trkpt><trkpt lat="44.1024355808177" lon="9.928192002485826"><ele>27.999999999999996</ele><time>2026-03-23T16:03:19.999Z</time></trkpt><trkpt lat="44.10236747283319" lon="9.928250126707049"><ele>28.0</ele><time>2026-03-23T16:03:21.999Z</time></trkpt><trkpt lat="44.102332501401555" lon="9.92837114960687"><ele>28.0</ele><time>2026-03-23T16:03:23.999Z</time></trkpt><trkpt lat="44.102386796534894" lon="9.928503352284906"><ele>26.333333333333336</ele><time>2026-03-23T16:03:25.999Z</time></trkpt><trkpt lat="44.10240297760754" lon="9.928638647719309"><ele>24.666666666666668</ele><time>2026-03-23T16:03:27.999Z</time></trkpt><trkpt lat="44.10234109316876" lon="9.928788405900763"><ele>23.0</ele><time>2026-03-23T16:03:29.999Z</time></trkpt><trkpt lat="44.102319767782156" lon="9.928871221324114"><ele>21.333333333333336</ele><time>2026-03-23T16:03:30.999Z</time></trkpt><trkpt lat="44.10230254006823" lon="9.92895559918254"><ele>19.666666666666668</ele><time>2026-03-23T16:03:31.999Z</time></trkpt><trkpt lat="44.102257674004704" lon="9.929069402668617"><ele>18.0</ele><time>2026-03-23T16:03:33.999Z</time></trkpt><trkpt lat="44.102185811952175" lon="9.929112027738272"><ele>18.0</ele><time>2026-03-23T16:03:35.999Z</time></trkpt><trkpt lat="44.10208494439703" lon="9.929040061750845"><ele>18.0</ele><time>2026-03-23T16:03:37.999Z</time></trkpt><trkpt lat="44.101979732335856" lon="9.929037021288856"><ele>18.0</ele><time>2026-03-23T16:03:39.999Z</time></trkpt><trkpt lat="44.10186052270776" lon="9.929030566136415"><ele>18.0</ele><time>2026-03-23T16:03:41.999Z</time></trkpt><trkpt lat="44.10174195758675" lon="9.929056602446627"><ele>18.0</ele><time>2026-03-23T16:03:43.999Z</time></trkpt><trkpt lat="44.10163823284522" lon="9.929099484619249"><ele>18.0</ele><time>2026-03-23T16:03:45.999Z</time></trkpt><trkpt lat="44.10153872086718" lon="9.929168874277263"><ele>18.0</ele><time>2026-03-23T16:03:47.999Z</time></trkpt><trkpt lat="44.10148800733157" lon="9.9292420521716"><ele>18.0</ele><time>2026-03-23T16:03:50.999Z</time></trkpt><trkpt lat="44.10145535040928" lon="9.929058432255982"><ele>18.0</ele><time>2026-03-23T16:03:56.999Z</time></trkpt><trkpt lat="44.101408651722714" lon="9.928959138083352"><ele>17.5</ele><time>2026-03-23T16:03:59.999Z</time></trkpt><trkpt lat="44.101365504028536" lon="9.928876115110995"><ele>17.0</ele><time>2026-03-23T16:04:02.999Z</time></trkpt><trkpt lat="44.10132084828188" lon="9.928797490288073"><ele>16.5</ele><time>2026-03-23T16:04:05.999Z</time></trkpt><trkpt lat="44.10127466416056" lon="9.928716174956199"><ele>16.0</ele><time>2026-03-23T16:04:08.999Z</time></trkpt><trkpt lat="44.10125986722339" lon="9.928612437236334"><ele>15.5</ele><time>2026-03-23T16:04:12.999Z</time></trkpt><trkpt lat="44.101260180410584" lon="9.928503692069334"><ele>15.0</ele><time>2026-03-23T16:04:16.999Z</time></trkpt><trkpt lat="44.101266938069685" lon="9.928396789546271"><ele>15.0</ele><time>2026-03-23T16:04:20.999Z</time></trkpt><trkpt lat="44.101281497090994" lon="9.928284465067971"><ele>15.0</ele><time>2026-03-23T16:04:24.999Z</time></trkpt><trkpt lat="44.10127848092128" lon="9.928192104881747"><ele>15.0</ele><time>2026-03-23T16:04:29.999Z</time></trkpt><trkpt lat="44.101278480929736" lon="9.92828380781072"><ele>15.0</ele><time>2026-03-23T16:04:54.999Z</time></trkpt><trkpt lat="44.10127449773181" lon="9.928372176403284"><ele>15.0</ele><time>2026-03-23T16:04:57.999Z</time></trkpt><trkpt lat="44.10127707280535" lon="9.928479936802153"><ele>15.0</ele><time>2026-03-23T16:04:59.999Z</time></trkpt><trkpt lat="44.101223129679525" lon="9.928600801851292"><ele>15.0</ele><time>2026-03-23T16:05:01.999Z</time></trkpt><trkpt lat="44.1012553409021" lon="9.928723855056104"><ele>15.0</ele><time>2026-03-23T16:05:03.999Z</time></trkpt><trkpt lat="44.10129824153433" lon="9.928824502971409"><ele>15.0</ele><time>2026-03-23T16:05:05.999Z</time></trkpt><trkpt lat="44.10134669810534" lon="9.928904365727806"><ele>15.0</ele><time>2026-03-23T16:05:07.999Z</time></trkpt><trkpt lat="44.101418410645955" lon="9.929031665247786"><ele>15.0</ele><time>2026-03-23T16:05:09.999Z</time></trkpt><trkpt lat="44.10146676884174" lon="9.929107753230406"><ele>15.0</ele><time>2026-03-23T16:05:10.999Z</time></trkpt><trkpt lat="44.101488920615616" lon="9.929202497921894"><ele>14.714285714285715</ele><time>2026-03-23T16:05:12.999Z</time></trkpt><trkpt lat="44.101465277567385" lon="9.929315582846659"><ele>14.428571428571427</ele><time>2026-03-23T16:05:15.999Z</time></trkpt><trkpt lat="44.10144047421162" lon="9.92939985457299"><ele>14.142857142857142</ele><time>2026-03-23T16:05:17.999Z</time></trkpt><trkpt lat="44.101400308317096" lon="9.929476986782603"><ele>13.857142857142858</ele><time>2026-03-23T16:05:19.999Z</time></trkpt><trkpt lat="44.10134891042002" lon="9.929550027481499"><ele>13.571428571428573</ele><time>2026-03-23T16:05:21.999Z</time></trkpt><trkpt lat="44.10128527645018" lon="9.929596976245312"><ele>13.285714285714285</ele><time>2026-03-23T16:05:23.999Z</time></trkpt><trkpt lat="44.10121366215989" lon="9.929614655173758"><ele>13.0</ele><time>2026-03-23T16:05:25.999Z</time></trkpt><trkpt lat="44.1011421366226" lon="9.929656720003475"><ele>13.0</ele><time>2026-03-23T16:05:27.999Z</time></trkpt><trkpt lat="44.10105051337896" lon="9.929708762494617"><ele>13.0</ele><time>2026-03-23T16:05:29.999Z</time></trkpt><trkpt lat="44.10098164167652" lon="9.929794835068982"><ele>13.0</ele><time>2026-03-23T16:05:31.999Z</time></trkpt><trkpt lat="44.10091506104508" lon="9.929904135658276"><ele>13.0</ele><time>2026-03-23T16:05:33.999Z</time></trkpt><trkpt lat="44.1008631760914" lon="9.930038141170728"><ele>13.0</ele><time>2026-03-23T16:05:35.999Z</time></trkpt><trkpt lat="44.10079886123198" lon="9.930158517825772"><ele>12.600000000000001</ele><time>2026-03-23T16:05:37.999Z</time></trkpt><trkpt lat="44.100739161533674" lon="9.930277093858763"><ele>12.200000000000001</ele><time>2026-03-23T16:05:39.999Z</time></trkpt><trkpt lat="44.1006695310334" lon="9.930377301602427"><ele>11.8</ele><time>2026-03-23T16:05:42Z</time></trkpt><trkpt lat="44.10061358452239" lon="9.930489100831076"><ele>11.4</ele><time>2026-03-23T16:05:44Z</time></trkpt><trkpt lat="44.10055899345665" lon="9.93059931667814"><ele>11.0</ele><time>2026-03-23T16:05:46Z</time></trkpt><trkpt lat="44.100516539832434" lon="9.930724476776023"><ele>11.0</ele><time>2026-03-23T16:05:48Z</time></trkpt><trkpt lat="44.10044233578142" lon="9.930834841159678"><ele>11.0</ele><time>2026-03-23T16:05:50Z</time></trkpt><trkpt lat="44.100384940208265" lon="9.93095071919965"><ele>11.0</ele><time>2026-03-23T16:05:52Z</time></trkpt><trkpt lat="44.10033837146413" lon="9.931067897137991"><ele>11.0</ele><time>2026-03-23T16:05:54Z</time></trkpt><trkpt lat="44.10029338779041" lon="9.931174416765113"><ele>11.0</ele><time>2026-03-23T16:05:56Z</time></trkpt><trkpt lat="44.10024694367857" lon="9.931280559295187"><ele>10.8</ele><time>2026-03-23T16:05:58Z</time></trkpt><trkpt lat="44.10021672753822" lon="9.93141256581621"><ele>10.600000000000001</ele><time>2026-03-23T16:06:00Z</time></trkpt><trkpt lat="44.10016064000023" lon="9.931544182668496"><ele>10.4</ele><time>2026-03-23T16:06:02Z</time></trkpt><trkpt lat="44.100094482870205" lon="9.931669460805754"><ele>10.2</ele><time>2026-03-23T16:06:04Z</time></trkpt><trkpt lat="44.10004578422633" lon="9.931809251174155"><ele>10.0</ele><time>2026-03-23T16:06:06Z</time></trkpt><trkpt lat="44.0999917078408" lon="9.93193055401649"><ele>10.0</ele><time>2026-03-23T16:06:08Z</time></trkpt><trkpt lat="44.099935883862756" lon="9.932049588748356"><ele>10.0</ele><time>2026-03-23T16:06:10Z</time></trkpt><trkpt lat="44.0998784580195" lon="9.932174362906407"><ele>10.0</ele><time>2026-03-23T16:06:12Z</time></trkpt><trkpt lat="44.09982650748965" lon="9.93229891903899"><ele>10.0</ele><time>2026-03-23T16:06:14Z</time></trkpt><trkpt lat="44.09976901833047" lon="9.932429380689246"><ele>10.0</ele><time>2026-03-23T16:06:16Z</time></trkpt><trkpt lat="44.099711354917936" lon="9.93256115537029"><ele>9.75</ele><time>2026-03-23T16:06:18Z</time></trkpt><trkpt lat="44.09965101608483" lon="9.932697742976059"><ele>9.5</ele><time>2026-03-23T16:06:20Z</time></trkpt><trkpt lat="44.09959303494088" lon="9.932823657208175"><ele>9.25</ele><time>2026-03-23T16:06:22Z</time></trkpt><trkpt lat="44.0995382165727" lon="9.932955044365471"><ele>9.0</ele><time>2026-03-23T16:06:24Z</time></trkpt><trkpt lat="44.0994756028131" lon="9.933099914322531"><ele>9.0</ele><time>2026-03-23T16:06:26Z</time></trkpt><trkpt lat="44.09942005054414" lon="9.933240718662951"><ele>9.0</ele><time>2026-03-23T16:06:28Z</time></trkpt><trkpt lat="44.09937214290813" lon="9.933348302794283"><ele>9.0</ele><time>2026-03-23T16:06:30Z</time></trkpt><trkpt lat="44.09932454514643" lon="9.933476043527286"><ele>9.0</ele><time>2026-03-23T16:06:32Z</time></trkpt><trkpt lat="44.099278980692326" lon="9.933575410341632"><ele>9.0</ele><time>2026-03-23T16:06:34Z</time></trkpt><trkpt lat="44.099237995090405" lon="9.93365168142417"><ele>8.8</ele><time>2026-03-23T16:06:37Z</time></trkpt><trkpt lat="44.09924713153882" lon="9.933809120700595"><ele>8.600000000000001</ele><time>2026-03-23T16:06:42Z</time></trkpt><trkpt lat="44.099296726392" lon="9.933869456473609"><ele>8.4</ele><time>2026-03-23T16:06:43Z</time></trkpt><trkpt lat="44.09936841253181" lon="9.933987137043296"><ele>8.200000000000001</ele><time>2026-03-23T16:06:45Z</time></trkpt><trkpt lat="44.09944405157053" lon="9.934127599390253"><ele>8.0</ele><time>2026-03-23T16:06:47Z</time></trkpt><trkpt lat="44.09948023893737" lon="9.934205613030366"><ele>8.200000000000001</ele><time>2026-03-23T16:06:48Z</time></trkpt><trkpt lat="44.099558635350014" lon="9.934342762276657"><ele>8.4</ele><time>2026-03-23T16:06:50Z</time></trkpt><trkpt lat="44.09959658060244" lon="9.934415928547711"><ele>8.600000000000001</ele><time>2026-03-23T16:06:51Z</time></trkpt><trkpt lat="44.099670548986715" lon="9.934558007199012"><ele>8.8</ele><time>2026-03-23T16:06:53Z</time></trkpt><trkpt lat="44.09970790644892" lon="9.934634480351693"><ele>9.0</ele><time>2026-03-23T16:06:54Z</time></trkpt><trkpt lat="44.099737064702296" lon="9.934721403995907"><ele>9.0</ele><time>2026-03-23T16:06:55Z</time></trkpt><trkpt lat="44.09976759223909" lon="9.934811847582552"><ele>9.0</ele><time>2026-03-23T16:06:56Z</time></trkpt><trkpt lat="44.099786713219714" lon="9.9349120205908"><ele>9.0</ele><time>2026-03-23T16:06:57Z</time></trkpt><trkpt lat="44.099787331632804" lon="9.935022661349189"><ele>9.0</ele><time>2026-03-23T16:06:58Z</time></trkpt><trkpt lat="44.09977977293427" lon="9.93513694722849"><ele>9.0</ele><time>2026-03-23T16:06:59Z</time></trkpt><trkpt lat="44.0998204816774" lon="9.935232212285664"><ele>9.0</ele><time>2026-03-23T16:07:00Z</time></trkpt><trkpt lat="44.09987993161927" lon="9.935276359840396"><ele>9.000000000000002</ele><time>2026-03-23T16:07:01Z</time></trkpt><trkpt lat="44.09995059108426" lon="9.935240759004204"><ele>9.0</ele><time>2026-03-23T16:07:02Z</time></trkpt><trkpt lat="44.100007017696896" lon="9.935167654037285"><ele>9.0</ele><time>2026-03-23T16:07:03Z</time></trkpt><trkpt lat="44.10003067269531" lon="9.935082759193522"><ele>9.0</ele><time>2026-03-23T16:07:04Z</time></trkpt><trkpt lat="44.100081519668706" lon="9.935017692587937"><ele>9.0</ele><time>2026-03-23T16:07:05Z</time></trkpt><trkpt lat="44.10014413787527" lon="9.934961132759135"><ele>9.000000000000002</ele><time>2026-03-23T16:07:06Z</time></trkpt><trkpt lat="44.10020457348237" lon="9.93489440015021"><ele>9.0</ele><time>2026-03-23T16:07:06.999Z</time></trkpt><trkpt lat="44.10026606909243" lon="9.934833546787633"><ele>9.0</ele><time>2026-03-23T16:07:07.999Z</time></trkpt><trkpt lat="44.10033190475613" lon="9.934776186354888"><ele>9.0</ele><time>2026-03-23T16:07:08.999Z</time></trkpt><trkpt lat="44.10039901849274" lon="9.934716282854332"><ele>9.0</ele><time>2026-03-23T16:07:09.999Z</time></trkpt><trkpt lat="44.1004698809837" lon="9.934656599347985"><ele>9.0</ele><time>2026-03-23T16:07:10.999Z</time></trkpt><trkpt lat="44.10054834192526" lon="9.934605730467263"><ele>9.0</ele><time>2026-03-23T16:07:11.999Z</time></trkpt><trkpt lat="44.1006237495348" lon="9.934556554025225"><ele>9.0</ele><time>2026-03-23T16:07:12.999Z</time></trkpt><trkpt lat="44.10070983537782" lon="9.934534871992264"><ele>9.166666666666666</ele><time>2026-03-23T16:07:13.999Z</time></trkpt><trkpt lat="44.100797194269155" lon="9.93453100811906"><ele>9.333333333333334</ele><time>2026-03-23T16:07:14.999Z</time></trkpt><trkpt lat="44.100872399842174" lon="9.934530744413582"><ele>9.5</ele><time>2026-03-23T16:07:15.999Z</time></trkpt><trkpt lat="44.10095247210205" lon="9.934522524388132"><ele>9.666666666666668</ele><time>2026-03-23T16:07:16.999Z</time></trkpt><trkpt lat="44.10102696563268" lon="9.93452796808287"><ele>9.833333333333334</ele><time>2026-03-23T16:07:17.999Z</time></trkpt><trkpt lat="44.10111549411106" lon="9.934536538675497"><ele>10.0</ele><time>2026-03-23T16:07:18.999Z</time></trkpt><trkpt lat="44.101193693227955" lon="9.934543563145459"><ele>10.0</ele><time>2026-03-23T16:07:19.999Z</time></trkpt><trkpt lat="44.101280716896554" lon="9.934568936304661"><ele>10.0</ele><time>2026-03-23T16:07:20.999Z</time></trkpt><trkpt lat="44.10137158870359" lon="9.934585261419924"><ele>10.0</ele><time>2026-03-23T16:07:21.999Z</time></trkpt><trkpt lat="44.10146300251595" lon="9.934608648418294"><ele>10.0</ele><time>2026-03-23T16:07:22.999Z</time></trkpt><trkpt lat="44.101549225151714" lon="9.93462838613133"><ele>10.0</ele><time>2026-03-23T16:07:23.999Z</time></trkpt><trkpt lat="44.101638137308505" lon="9.93465514934517"><ele>10.166666666666668</ele><time>2026-03-23T16:07:24.999Z</time></trkpt><trkpt lat="44.10172480071224" lon="9.934677335044862"><ele>10.333333333333334</ele><time>2026-03-23T16:07:25.999Z</time></trkpt><trkpt lat="44.10181400018329" lon="9.93469579204622"><ele>10.5</ele><time>2026-03-23T16:07:26.999Z</time></trkpt><trkpt lat="44.101899982335205" lon="9.934715365368595"><ele>10.666666666666666</ele><time>2026-03-23T16:07:27.999Z</time></trkpt><trkpt lat="44.101989967963235" lon="9.934734923292664"><ele>10.833333333333332</ele><time>2026-03-23T16:07:28.999Z</time></trkpt><trkpt lat="44.1020798030989" lon="9.934760854527644"><ele>11.0</ele><time>2026-03-23T16:07:29.999Z</time></trkpt><trkpt lat="44.10216977857978" lon="9.934793113465258"><ele>11.0</ele><time>2026-03-23T16:07:30.999Z</time></trkpt><trkpt lat="44.10226208415402" lon="9.934828889838066"><ele>11.0</ele><time>2026-03-23T16:07:31.999Z</time></trkpt><trkpt lat="44.10235196578483" lon="9.934860616914555"><ele>11.0</ele><time>2026-03-23T16:07:32.999Z</time></trkpt><trkpt lat="44.102436793595466" lon="9.934898318022512"><ele>11.0</ele><time>2026-03-23T16:07:33.999Z</time></trkpt><trkpt lat="44.10252131329687" lon="9.934957312244894"><ele>11.0</ele><time>2026-03-23T16:07:34.999Z</time></trkpt><trkpt lat="44.10259326161596" lon="9.93502574326168"><ele>10.600000000000001</ele><time>2026-03-23T16:07:35.999Z</time></trkpt><trkpt lat="44.10265390371801" lon="9.935114014533585"><ele>10.200000000000001</ele><time>2026-03-23T16:07:36.999Z</time></trkpt><trkpt lat="44.10269083836518" lon="9.935200516705681"><ele>9.8</ele><time>2026-03-23T16:07:37.999Z</time></trkpt><trkpt lat="44.102727386168816" lon="9.935358818570586"><ele>9.4</ele><time>2026-03-23T16:07:39.999Z</time></trkpt><trkpt lat="44.10267382408517" lon="9.935515323616386"><ele>9.0</ele><time>2026-03-23T16:07:41.999Z</time></trkpt><trkpt lat="44.10267880983891" lon="9.935671237012391"><ele>9.0</ele><time>2026-03-23T16:07:43.999Z</time></trkpt><trkpt lat="44.102728009926004" lon="9.935729495936558"><ele>9.0</ele><time>2026-03-23T16:07:44.999Z</time></trkpt><trkpt lat="44.10285098095961" lon="9.935719084454385"><ele>9.0</ele><time>2026-03-23T16:07:47Z</time></trkpt><trkpt lat="44.10291652436028" lon="9.93570803100959"><ele>9.0</ele><time>2026-03-23T16:07:48Z</time></trkpt><trkpt lat="44.10298275465474" lon="9.935697308575069"><ele>9.0</ele><time>2026-03-23T16:07:49Z</time></trkpt><trkpt lat="44.1030522916979" lon="9.935702005475104"><ele>9.0</ele><time>2026-03-23T16:07:50Z</time></trkpt><trkpt lat="44.10312286936776" lon="9.935706639424273"><ele>9.000000000000002</ele><time>2026-03-23T16:07:51Z</time></trkpt><trkpt lat="44.1031983945978" lon="9.935706510823756"><ele>9.0</ele><time>2026-03-23T16:07:52Z</time></trkpt><trkpt lat="44.103269302057775" lon="9.935691562612309"><ele>9.0</ele><time>2026-03-23T16:07:53Z</time></trkpt><trkpt lat="44.10334232228621" lon="9.935675953149982"><ele>9.0</ele><time>2026-03-23T16:07:54Z</time></trkpt><trkpt lat="44.10341416921071" lon="9.935651652263019"><ele>9.0</ele><time>2026-03-23T16:07:55Z</time></trkpt><trkpt lat="44.103486805089574" lon="9.935626673427057"><ele>9.000000000000002</ele><time>2026-03-23T16:07:56Z</time></trkpt><trkpt lat="44.103558991639574" lon="9.935600739451301"><ele>9.0</ele><time>2026-03-23T16:07:57Z</time></trkpt><trkpt lat="44.10363182284235" lon="9.935571864387308"><ele>9.166666666666666</ele><time>2026-03-23T16:07:58Z</time></trkpt><trkpt lat="44.103702855405544" lon="9.93554823414935"><ele>9.333333333333334</ele><time>2026-03-23T16:07:59Z</time></trkpt><trkpt lat="44.103774768361916" lon="9.935522916467567"><ele>9.5</ele><time>2026-03-23T16:08:00Z</time></trkpt><trkpt lat="44.10384705604003" lon="9.935491937787361"><ele>9.666666666666668</ele><time>2026-03-23T16:08:01Z</time></trkpt><trkpt lat="44.10391602024938" lon="9.93546051547015"><ele>9.833333333333334</ele><time>2026-03-23T16:08:02Z</time></trkpt><trkpt lat="44.10399290030301" lon="9.935421039053118"><ele>10.0</ele><time>2026-03-23T16:08:03Z</time></trkpt><trkpt lat="44.10406477894371" lon="9.935377210137464"><ele>9.833333333333334</ele><time>2026-03-23T16:08:04Z</time></trkpt><trkpt lat="44.10414087236509" lon="9.935340010167074"><ele>9.666666666666668</ele><time>2026-03-23T16:08:05Z</time></trkpt><trkpt lat="44.10421492060692" lon="9.935303840550445"><ele>9.5</ele><time>2026-03-23T16:08:06Z</time></trkpt><trkpt lat="44.104295310457225" lon="9.935270355718977"><ele>9.333333333333334</ele><time>2026-03-23T16:08:07Z</time></trkpt><trkpt lat="44.10437497146543" lon="9.935234826012591"><ele>9.166666666666666</ele><time>2026-03-23T16:08:08Z</time></trkpt><trkpt lat="44.104454851409244" lon="9.935202890457541"><ele>9.0</ele><time>2026-03-23T16:08:09Z</time></trkpt><trkpt lat="44.1045332779388" lon="9.935169176499398"><ele>9.0</ele><time>2026-03-23T16:08:10Z</time></trkpt><trkpt lat="44.10461224025724" lon="9.935140883185205"><ele>9.0</ele><time>2026-03-23T16:08:11Z</time></trkpt><trkpt lat="44.10468790152232" lon="9.935109997603437"><ele>9.0</ele><time>2026-03-23T16:08:12Z</time></trkpt><trkpt lat="44.10476840977358" lon="9.935077053937702"><ele>9.0</ele><time>2026-03-23T16:08:13Z</time></trkpt><trkpt lat="44.104845590607454" lon="9.93504743330386"><ele>9.0</ele><time>2026-03-23T16:08:14Z</time></trkpt><trkpt lat="44.10492429805831" lon="9.935016232171678"><ele>9.0</ele><time>2026-03-23T16:08:15Z</time></trkpt><trkpt lat="44.10500800875795" lon="9.93498077393192"><ele>9.0</ele><time>2026-03-23T16:08:16Z</time></trkpt><trkpt lat="44.10508842691386" lon="9.934946551687478"><ele>9.0</ele><time>2026-03-23T16:08:17Z</time></trkpt><trkpt lat="44.105171876956575" lon="9.934920146321936"><ele>9.0</ele><time>2026-03-23T16:08:18Z</time></trkpt><trkpt lat="44.10525426996723" lon="9.934887588207133"><ele>9.0</ele><time>2026-03-23T16:08:19Z</time></trkpt><trkpt lat="44.10533776780873" lon="9.934852662818718"><ele>9.0</ele><time>2026-03-23T16:08:20Z</time></trkpt><trkpt lat="44.105419686577264" lon="9.934821942954066"><ele>9.0</ele><time>2026-03-23T16:08:21Z</time></trkpt><trkpt lat="44.10550359077353" lon="9.934787244234746"><ele>9.0</ele><time>2026-03-23T16:08:22Z</time></trkpt><trkpt lat="44.105582815078776" lon="9.934756003545152"><ele>9.0</ele><time>2026-03-23T16:08:23Z</time></trkpt><trkpt lat="44.1056663647013" lon="9.934720450529312"><ele>9.0</ele><time>2026-03-23T16:08:24Z</time></trkpt><trkpt lat="44.10574848429743" lon="9.934688592653526"><ele>9.0</ele><time>2026-03-23T16:08:25Z</time></trkpt><trkpt lat="44.10583032806536" lon="9.934658609767993"><ele>9.0</ele><time>2026-03-23T16:08:26Z</time></trkpt><trkpt lat="44.10591251019431" lon="9.934626597880303"><ele>9.0</ele><time>2026-03-23T16:08:27Z</time></trkpt><trkpt lat="44.10599372513036" lon="9.934592330588965"><ele>8.833333333333334</ele><time>2026-03-23T16:08:28Z</time></trkpt><trkpt lat="44.10607725969835" lon="9.934565377497627"><ele>8.666666666666666</ele><time>2026-03-23T16:08:29Z</time></trkpt><trkpt lat="44.106161928612316" lon="9.934528376928805"><ele>8.5</ele><time>2026-03-23T16:08:30Z</time></trkpt><trkpt lat="44.10624474173164" lon="9.934500092441727"><ele>8.333333333333332</ele><time>2026-03-23T16:08:31Z</time></trkpt><trkpt lat="44.10632691527836" lon="9.93446067184487"><ele>8.166666666666666</ele><time>2026-03-23T16:08:32Z</time></trkpt><trkpt lat="44.106411080331135" lon="9.934426580589292"><ele>8.0</ele><time>2026-03-23T16:08:33Z</time></trkpt><trkpt lat="44.10650440800931" lon="9.93440698832886"><ele>7.499999999999999</ele><time>2026-03-23T16:08:34Z</time></trkpt><trkpt lat="44.10658177806366" lon="9.93435937313837"><ele>7.0</ele><time>2026-03-23T16:08:35Z</time></trkpt><trkpt lat="44.10666685206661" lon="9.934323437847523"><ele>6.5</ele><time>2026-03-23T16:08:36Z</time></trkpt><trkpt lat="44.10675711752444" lon="9.934292532994023"><ele>6.0</ele><time>2026-03-23T16:08:37Z</time></trkpt><trkpt lat="44.106843888136495" lon="9.934265065672887"><ele>5.5</ele><time>2026-03-23T16:08:38Z</time></trkpt><trkpt lat="44.10692967272195" lon="9.934235676805073"><ele>5.0</ele><time>2026-03-23T16:08:39Z</time></trkpt><trkpt lat="44.10701214959926" lon="9.934200945615187"><ele>6.333333333333334</ele><time>2026-03-23T16:08:40Z</time></trkpt><trkpt lat="44.107096140363126" lon="9.934171641265197"><ele>7.666666666666666</ele><time>2026-03-23T16:08:41Z</time></trkpt><trkpt lat="44.10717639628407" lon="9.934135242635675"><ele>9.0</ele><time>2026-03-23T16:08:42Z</time></trkpt><trkpt lat="44.10725198641929" lon="9.934080455881038"><ele>10.333333333333332</ele><time>2026-03-23T16:08:43Z</time></trkpt><trkpt lat="44.107313003988104" lon="9.934001910319502"><ele>11.666666666666666</ele><time>2026-03-23T16:08:44Z</time></trkpt><trkpt lat="44.10736094305701" lon="9.933911572484863"><ele>13.0</ele><time>2026-03-23T16:08:45Z</time></trkpt><trkpt lat="44.10739293190682" lon="9.933805528125326"><ele>12.999999999999998</ele><time>2026-03-23T16:08:46Z</time></trkpt><trkpt lat="44.107412136385285" lon="9.933690407907305"><ele>13.0</ele><time>2026-03-23T16:08:47Z</time></trkpt><trkpt lat="44.1074126185752" lon="9.93357274581777"><ele>13.0</ele><time>2026-03-23T16:08:48Z</time></trkpt><trkpt lat="44.107391289014686" lon="9.93346360342047"><ele>13.0</ele><time>2026-03-23T16:08:49Z</time></trkpt><trkpt lat="44.107348266652366" lon="9.933360391286705"><ele>12.999999999999998</ele><time>2026-03-23T16:08:50Z</time></trkpt><trkpt lat="44.10729319097729" lon="9.933275192506938"><ele>13.0</ele><time>2026-03-23T16:08:51Z</time></trkpt><trkpt lat="44.10723466280426" lon="9.933213704448503"><ele>14.428571428571427</ele><time>2026-03-23T16:08:52Z</time></trkpt><trkpt lat="44.10717961341989" lon="9.933150254379242"><ele>15.857142857142858</ele><time>2026-03-23T16:08:53Z</time></trkpt><trkpt lat="44.10713129305929" lon="9.933073225274141"><ele>17.285714285714285</ele><time>2026-03-23T16:08:54Z</time></trkpt><trkpt lat="44.107090870074394" lon="9.932991649801432"><ele>18.714285714285715</ele><time>2026-03-23T16:08:55Z</time></trkpt><trkpt lat="44.107067862044346" lon="9.932896339248655"><ele>20.142857142857142</ele><time>2026-03-23T16:08:56Z</time></trkpt><trkpt lat="44.107066789959546" lon="9.93279535431794"><ele>21.571428571428573</ele><time>2026-03-23T16:08:57Z</time></trkpt><trkpt lat="44.107075166046954" lon="9.932692982409469"><ele>23.0</ele><time>2026-03-23T16:08:58Z</time></trkpt><trkpt lat="44.107100342916596" lon="9.932592161311364"><ele>25.166666666666668</ele><time>2026-03-23T16:08:59Z</time></trkpt><trkpt lat="44.107138667038775" lon="9.93250264985419"><ele>27.333333333333336</ele><time>2026-03-23T16:09:00Z</time></trkpt><trkpt lat="44.107182017284906" lon="9.932418436430853"><ele>29.5</ele><time>2026-03-23T16:09:01Z</time></trkpt><trkpt lat="44.107225409813815" lon="9.932328433616249"><ele>31.666666666666668</ele><time>2026-03-23T16:09:02Z</time></trkpt><trkpt lat="44.10726657407286" lon="9.932236155964091"><ele>33.833333333333336</ele><time>2026-03-23T16:09:03Z</time></trkpt><trkpt lat="44.107301491406815" lon="9.93214865550894"><ele>36.0</ele><time>2026-03-23T16:09:04Z</time></trkpt><trkpt lat="44.10734005398966" lon="9.932062796498947"><ele>36.00000000000001</ele><time>2026-03-23T16:09:05Z</time></trkpt><trkpt lat="44.107383551348036" lon="9.931980396137375"><ele>36.0</ele><time>2026-03-23T16:09:06Z</time></trkpt><trkpt lat="44.107428343890476" lon="9.931899928890997"><ele>36.0</ele><time>2026-03-23T16:09:07Z</time></trkpt><trkpt lat="44.10747069326628" lon="9.931816085001222"><ele>36.0</ele><time>2026-03-23T16:09:08Z</time></trkpt><trkpt lat="44.107514631772084" lon="9.931735434596826"><ele>36.0</ele><time>2026-03-23T16:09:09Z</time></trkpt><trkpt lat="44.107559897545954" lon="9.931656166036785"><ele>36.00000000000001</ele><time>2026-03-23T16:09:10Z</time></trkpt><trkpt lat="44.10760404765113" lon="9.931573468469601"><ele>36.0</ele><time>2026-03-23T16:09:11Z</time></trkpt><trkpt lat="44.10764927549185" lon="9.93148791283302"><ele>32.833333333333336</ele><time>2026-03-23T16:09:12Z</time></trkpt><trkpt lat="44.10769646748332" lon="9.931400704755399"><ele>29.666666666666668</ele><time>2026-03-23T16:09:13Z</time></trkpt><trkpt lat="44.1077468905755" lon="9.931311461349276"><ele>26.5</ele><time>2026-03-23T16:09:14Z</time></trkpt><trkpt lat="44.10779478038994" lon="9.931220051632772"><ele>23.333333333333336</ele><time>2026-03-23T16:09:15Z</time></trkpt><trkpt lat="44.107843367304206" lon="9.931126625097505"><ele>20.166666666666668</ele><time>2026-03-23T16:09:16Z</time></trkpt><trkpt lat="44.10789223573805" lon="9.931034847600452"><ele>17.0</ele><time>2026-03-23T16:09:17Z</time></trkpt><trkpt lat="44.10794219252098" lon="9.930943690053889"><ele>15.833333333333334</ele><time>2026-03-23T16:09:18Z</time></trkpt><trkpt lat="44.10799153569084" lon="9.930852047545217"><ele>14.666666666666668</ele><time>2026-03-23T16:09:19Z</time></trkpt><trkpt lat="44.108042021808494" lon="9.930759683484688"><ele>13.5</ele><time>2026-03-23T16:09:20Z</time></trkpt><trkpt lat="44.108094078751336" lon="9.930663820978545"><ele>12.333333333333334</ele><time>2026-03-23T16:09:21Z</time></trkpt><trkpt lat="44.10814835783235" lon="9.930568504668125"><ele>11.166666666666668</ele><time>2026-03-23T16:09:22Z</time></trkpt><trkpt lat="44.10820335523013" lon="9.93047270318635"><ele>10.0</ele><time>2026-03-23T16:09:23Z</time></trkpt><trkpt lat="44.108255198247484" lon="9.930374867146215"><ele>10.0</ele><time>2026-03-23T16:09:24Z</time></trkpt><trkpt lat="44.10830755120534" lon="9.930281779871747"><ele>10.0</ele><time>2026-03-23T16:09:25Z</time></trkpt><trkpt lat="44.10836055303031" lon="9.930186602536846"><ele>10.0</ele><time>2026-03-23T16:09:26Z</time></trkpt><trkpt lat="44.10841210101783" lon="9.930089256132623"><ele>10.0</ele><time>2026-03-23T16:09:27Z</time></trkpt><trkpt lat="44.108464553582046" lon="9.929993304931164"><ele>10.0</ele><time>2026-03-23T16:09:28Z</time></trkpt><trkpt lat="44.108516872454025" lon="9.929895502964186"><ele>10.0</ele><time>2026-03-23T16:09:29Z</time></trkpt><trkpt lat="44.10856977161336" lon="9.929799203368063"><ele>11.333333333333334</ele><time>2026-03-23T16:09:30Z</time></trkpt><trkpt lat="44.10862269667808" lon="9.929703018973836"><ele>12.666666666666668</ele><time>2026-03-23T16:09:31Z</time></trkpt><trkpt lat="44.10867328018745" lon="9.929603667885067"><ele>14.0</ele><time>2026-03-23T16:09:32Z</time></trkpt><trkpt lat="44.1087248627241" lon="9.929506570450398"><ele>15.333333333333334</ele><time>2026-03-23T16:09:33Z</time></trkpt><trkpt lat="44.10877713502235" lon="9.929410765714985"><ele>16.666666666666668</ele><time>2026-03-23T16:09:34Z</time></trkpt><trkpt lat="44.108830002766375" lon="9.929314228843825"><ele>18.0</ele><time>2026-03-23T16:09:35Z</time></trkpt><trkpt lat="44.108883273394355" lon="9.929216972774341"><ele>16.833333333333332</ele><time>2026-03-23T16:09:36Z</time></trkpt><trkpt lat="44.10893554266256" lon="9.929120953817453"><ele>15.666666666666666</ele><time>2026-03-23T16:09:37Z</time></trkpt><trkpt lat="44.10898909453581" lon="9.929023857377206"><ele>14.5</ele><time>2026-03-23T16:09:38Z</time></trkpt><trkpt lat="44.1090434726347" lon="9.928926295479037"><ele>13.333333333333332</ele><time>2026-03-23T16:09:39Z</time></trkpt><trkpt lat="44.10909715384502" lon="9.928823760059444"><ele>12.166666666666666</ele><time>2026-03-23T16:09:40Z</time></trkpt><trkpt lat="44.10915102578714" lon="9.928724891554547"><ele>11.0</ele><time>2026-03-23T16:09:41Z</time></trkpt><trkpt lat="44.10920390355122" lon="9.92862727962895"><ele>11.0</ele><time>2026-03-23T16:09:42Z</time></trkpt><trkpt lat="44.10925691361353" lon="9.928528839558998"><ele>11.0</ele><time>2026-03-23T16:09:43Z</time></trkpt><trkpt lat="44.109308600140835" lon="9.928428968408053"><ele>11.0</ele><time>2026-03-23T16:09:44Z</time></trkpt><trkpt lat="44.10935773074082" lon="9.928328438444439"><ele>11.0</ele><time>2026-03-23T16:09:45Z</time></trkpt><trkpt lat="44.10940296185411" lon="9.928221962917867"><ele>11.0</ele><time>2026-03-23T16:09:46Z</time></trkpt><trkpt lat="44.10944246126905" lon="9.928110485818067"><ele>11.0</ele><time>2026-03-23T16:09:47Z</time></trkpt><trkpt lat="44.109476981424024" lon="9.927996710501628"><ele>13.166666666666666</ele><time>2026-03-23T16:09:48Z</time></trkpt><trkpt lat="44.10950299414041" lon="9.927877553378574"><ele>15.333333333333332</ele><time>2026-03-23T16:09:49Z</time></trkpt><trkpt lat="44.109526110569306" lon="9.927756720872363"><ele>17.5</ele><time>2026-03-23T16:09:50Z</time></trkpt><trkpt lat="44.10954901749093" lon="9.927638673360647"><ele>19.666666666666668</ele><time>2026-03-23T16:09:51Z</time></trkpt><trkpt lat="44.10957082360957" lon="9.927520389866682"><ele>21.833333333333332</ele><time>2026-03-23T16:09:52Z</time></trkpt><trkpt lat="44.10958781969231" lon="9.927397567134417"><ele>24.0</ele><time>2026-03-23T16:09:53Z</time></trkpt><trkpt lat="44.10960384017247" lon="9.927276228427313"><ele>27.333333333333332</ele><time>2026-03-23T16:09:54Z</time></trkpt><trkpt lat="44.10961831739386" lon="9.927155030540215"><ele>30.666666666666664</ele><time>2026-03-23T16:09:55Z</time></trkpt><trkpt lat="44.109631622159974" lon="9.927032224408023"><ele>34.0</ele><time>2026-03-23T16:09:56Z</time></trkpt><trkpt lat="44.109640716426675" lon="9.926910414643677"><ele>37.33333333333333</ele><time>2026-03-23T16:09:57Z</time></trkpt><trkpt lat="44.10964771341914" lon="9.92678725695672"><ele>40.666666666666664</ele><time>2026-03-23T16:09:58Z</time></trkpt><trkpt lat="44.10965188483325" lon="9.926665857555397"><ele>44.0</ele><time>2026-03-23T16:09:59Z</time></trkpt><trkpt lat="44.109652709791526" lon="9.92654223919288"><ele>44.5</ele><time>2026-03-23T16:10:00Z</time></trkpt><trkpt lat="44.10965468811324" lon="9.926422069600111"><ele>45.0</ele><time>2026-03-23T16:10:01Z</time></trkpt><trkpt lat="44.10965157438256" lon="9.92630293607977"><ele>45.5</ele><time>2026-03-23T16:10:02Z</time></trkpt><trkpt lat="44.10964581251243" lon="9.92618683159144"><ele>46.0</ele><time>2026-03-23T16:10:03Z</time></trkpt><trkpt lat="44.109639324494644" lon="9.92607190705906"><ele>46.5</ele><time>2026-03-23T16:10:04Z</time></trkpt><trkpt lat="44.10962735024992" lon="9.925958727415813"><ele>47.0</ele><time>2026-03-23T16:10:05Z</time></trkpt><trkpt lat="44.1096146543922" lon="9.925848460098088"><ele>47.0</ele><time>2026-03-23T16:10:06Z</time></trkpt><trkpt lat="44.10960149458889" lon="9.92574051905832"><ele>47.0</ele><time>2026-03-23T16:10:07Z</time></trkpt><trkpt lat="44.10958784722852" lon="9.925633979665347"><ele>47.0</ele><time>2026-03-23T16:10:08Z</time></trkpt><trkpt lat="44.10957426687459" lon="9.92552914877862"><ele>47.0</ele><time>2026-03-23T16:10:09Z</time></trkpt><trkpt lat="44.10955891688969" lon="9.925422789293723"><ele>47.0</ele><time>2026-03-23T16:10:10Z</time></trkpt><trkpt lat="44.109540903772576" lon="9.925316275432557"><ele>47.0</ele><time>2026-03-23T16:10:11Z</time></trkpt><trkpt lat="44.109525151826205" lon="9.925211162660217"><ele>47.0</ele><time>2026-03-23T16:10:12Z</time></trkpt><trkpt lat="44.109502179634205" lon="9.925107129036274"><ele>47.0</ele><time>2026-03-23T16:10:13Z</time></trkpt><trkpt lat="44.10948514591256" lon="9.925003796908973"><ele>47.0</ele><time>2026-03-23T16:10:14Z</time></trkpt><trkpt lat="44.109471762446795" lon="9.924898395407547"><ele>47.0</ele><time>2026-03-23T16:10:15Z</time></trkpt><trkpt lat="44.10945603686561" lon="9.924792812074658"><ele>47.0</ele><time>2026-03-23T16:10:16Z</time></trkpt><trkpt lat="44.109441589402536" lon="9.92469006080996"><ele>47.0</ele><time>2026-03-23T16:10:17Z</time></trkpt><trkpt lat="44.10942700508107" lon="9.924586645400154"><ele>44.166666666666664</ele><time>2026-03-23T16:10:18Z</time></trkpt><trkpt lat="44.109409380517086" lon="9.924484284845098"><ele>41.33333333333333</ele><time>2026-03-23T16:10:19Z</time></trkpt><trkpt lat="44.10939150223706" lon="9.924381612653667"><ele>38.5</ele><time>2026-03-23T16:10:20Z</time></trkpt><trkpt lat="44.10937492900347" lon="9.924275976313345"><ele>35.666666666666664</ele><time>2026-03-23T16:10:21Z</time></trkpt><trkpt lat="44.10935840958519" lon="9.924169559708924"><ele>32.833333333333336</ele><time>2026-03-23T16:10:22Z</time></trkpt><trkpt lat="44.10934203855766" lon="9.924060416490839"><ele>30.0</ele><time>2026-03-23T16:10:23Z</time></trkpt><trkpt lat="44.1093249356688" lon="9.923950610446294"><ele>27.666666666666668</ele><time>2026-03-23T16:10:24Z</time></trkpt><trkpt lat="44.109305529923994" lon="9.923841807996554"><ele>25.333333333333332</ele><time>2026-03-23T16:10:25Z</time></trkpt><trkpt lat="44.109286782501734" lon="9.923731984377461"><ele>23.0</ele><time>2026-03-23T16:10:26Z</time></trkpt><trkpt lat="44.109269488685754" lon="9.923620829202342"><ele>20.666666666666664</ele><time>2026-03-23T16:10:27Z</time></trkpt><trkpt lat="44.10925022746091" lon="9.923508401194518"><ele>18.333333333333332</ele><time>2026-03-23T16:10:28Z</time></trkpt><trkpt lat="44.10923015648107" lon="9.923397007017273"><ele>16.0</ele><time>2026-03-23T16:10:29Z</time></trkpt><trkpt lat="44.10921024237925" lon="9.923287530084844"><ele>14.999999999999998</ele><time>2026-03-23T16:10:30Z</time></trkpt><trkpt lat="44.10919360784685" lon="9.923176957361022"><ele>14.0</ele><time>2026-03-23T16:10:31Z</time></trkpt><trkpt lat="44.1091783524622" lon="9.923066319883727"><ele>13.0</ele><time>2026-03-23T16:10:32Z</time></trkpt><trkpt lat="44.10915794508453" lon="9.922959272888988"><ele>12.0</ele><time>2026-03-23T16:10:33Z</time></trkpt><trkpt lat="44.10914139985512" lon="9.92285100386458"><ele>11.0</ele><time>2026-03-23T16:10:34Z</time></trkpt><trkpt lat="44.10912701111747" lon="9.92274185232045"><ele>10.0</ele><time>2026-03-23T16:10:35Z</time></trkpt><trkpt lat="44.109112763738715" lon="9.922631472241529"><ele>10.333333333333334</ele><time>2026-03-23T16:10:36Z</time></trkpt><trkpt lat="44.10910519492901" lon="9.922521255616763"><ele>10.666666666666668</ele><time>2026-03-23T16:10:37Z</time></trkpt><trkpt lat="44.1091063513572" lon="9.92241173824853"><ele>11.0</ele><time>2026-03-23T16:10:38Z</time></trkpt><trkpt lat="44.10911003225398" lon="9.92230415814814"><ele>11.333333333333334</ele><time>2026-03-23T16:10:39Z</time></trkpt><trkpt lat="44.10911699869809" lon="9.922193250590919"><ele>11.666666666666666</ele><time>2026-03-23T16:10:40Z</time></trkpt><trkpt lat="44.109123718696154" lon="9.922083753698908"><ele>12.0</ele><time>2026-03-23T16:10:41Z</time></trkpt><trkpt lat="44.109135888213586" lon="9.921978528876469"><ele>12.0</ele><time>2026-03-23T16:10:42Z</time></trkpt><trkpt lat="44.10915091848431" lon="9.921876943145156"><ele>12.0</ele><time>2026-03-23T16:10:43Z</time></trkpt><trkpt lat="44.10916463395008" lon="9.921775775708339"><ele>12.0</ele><time>2026-03-23T16:10:44Z</time></trkpt><trkpt lat="44.109177218489386" lon="9.921670946110362"><ele>12.0</ele><time>2026-03-23T16:10:45Z</time></trkpt><trkpt lat="44.10918942004771" lon="9.92156401339126"><ele>12.0</ele><time>2026-03-23T16:10:46Z</time></trkpt><trkpt lat="44.109199318363" lon="9.92145655195513"><ele>12.0</ele><time>2026-03-23T16:10:47Z</time></trkpt><trkpt lat="44.10921204945982" lon="9.921349858601682"><ele>12.714285714285714</ele><time>2026-03-23T16:10:48Z</time></trkpt><trkpt lat="44.10922426454042" lon="9.921243248411065"><ele>13.428571428571427</ele><time>2026-03-23T16:10:49Z</time></trkpt><trkpt lat="44.10923651265183" lon="9.92113577223235"><ele>14.142857142857142</ele><time>2026-03-23T16:10:50Z</time></trkpt><trkpt lat="44.109247714073874" lon="9.921026161320173"><ele>14.857142857142856</ele><time>2026-03-23T16:10:51Z</time></trkpt><trkpt lat="44.10925286939124" lon="9.920920025334757"><ele>15.571428571428571</ele><time>2026-03-23T16:10:52Z</time></trkpt><trkpt lat="44.10924820426677" lon="9.920825092905094"><ele>16.285714285714285</ele><time>2026-03-23T16:10:53Z</time></trkpt><trkpt lat="44.109234574883324" lon="9.920737680321224"><ele>17.0</ele><time>2026-03-23T16:10:54Z</time></trkpt><trkpt lat="44.10925250856542" lon="9.920624322297215"><ele>17.2</ele><time>2026-03-23T16:10:56Z</time></trkpt><trkpt lat="44.10931544714815" lon="9.92066373051431"><ele>17.4</ele><time>2026-03-23T16:10:57Z</time></trkpt><trkpt lat="44.10942138356102" lon="9.920643832963224"><ele>17.6</ele><time>2026-03-23T16:10:59Z</time></trkpt><trkpt lat="44.10952614039394" lon="9.920658613693684"><ele>17.8</ele><time>2026-03-23T16:11:01Z</time></trkpt><trkpt lat="44.10962676962919" lon="9.920689743300265"><ele>18.0</ele><time>2026-03-23T16:11:03Z</time></trkpt><trkpt lat="44.10971540882537" lon="9.920779332513666"><ele>18.0</ele><time>2026-03-23T16:11:05Z</time></trkpt><trkpt lat="44.109789526156305" lon="9.920860014854835"><ele>18.0</ele><time>2026-03-23T16:11:07Z</time></trkpt><trkpt lat="44.109884112323954" lon="9.920728848511148"><ele>18.0</ele><time>2026-03-23T16:11:10Z</time></trkpt><trkpt lat="44.10994742221067" lon="9.920581510798206"><ele>18.0</ele><time>2026-03-23T16:11:12Z</time></trkpt><trkpt lat="44.1100082972598" lon="9.92043556487425"><ele>16.25</ele><time>2026-03-23T16:11:14Z</time></trkpt><trkpt lat="44.1100648456235" lon="9.920288668593292"><ele>14.5</ele><time>2026-03-23T16:11:16Z</time></trkpt><trkpt lat="44.11012740362049" lon="9.920147260328545"><ele>12.75</ele><time>2026-03-23T16:11:18Z</time></trkpt><trkpt lat="44.11020024932735" lon="9.920026352377706"><ele>11.0</ele><time>2026-03-23T16:11:20Z</time></trkpt><trkpt lat="44.110299392986576" lon="9.920071908003015"><ele>11.0</ele><time>2026-03-23T16:11:21Z</time></trkpt><trkpt lat="44.11036069890656" lon="9.919953009451255"><ele>11.0</ele><time>2026-03-23T16:11:23Z</time></trkpt><trkpt lat="44.11044614046796" lon="9.919855283659016"><ele>11.0</ele><time>2026-03-23T16:11:25Z</time></trkpt><trkpt lat="44.11051651491015" lon="9.91973035583952"><ele>11.0</ele><time>2026-03-23T16:11:27Z</time></trkpt><trkpt lat="44.110576115148945" lon="9.919586074564547"><ele>11.0</ele><time>2026-03-23T16:11:29Z</time></trkpt><trkpt lat="44.1106381027598" lon="9.919554383376383"><ele>11.0</ele><time>2026-03-23T16:11:30Z</time></trkpt><trkpt lat="44.110719840410134" lon="9.91943803964252"><ele>11.0</ele><time>2026-03-23T16:11:32Z</time></trkpt><trkpt lat="44.11078833186561" lon="9.919353798907183"><ele>11.0</ele><time>2026-03-23T16:11:34Z</time></trkpt><trkpt lat="44.11094831122776" lon="9.919275076560012"><ele>11.0</ele><time>2026-03-23T16:11:38Z</time></trkpt><trkpt lat="44.11103991726661" lon="9.919192332789905"><ele>10.75</ele><time>2026-03-23T16:11:40Z</time></trkpt><trkpt lat="44.111129955716706" lon="9.91912963881084"><ele>10.5</ele><time>2026-03-23T16:11:42Z</time></trkpt><trkpt lat="44.11123977373278" lon="9.919106558325115"><ele>10.25</ele><time>2026-03-23T16:11:44Z</time></trkpt><trkpt lat="44.11135552561587" lon="9.919060370113971"><ele>10.0</ele><time>2026-03-23T16:11:46Z</time></trkpt><trkpt lat="44.11147820536122" lon="9.919035428707799"><ele>10.0</ele><time>2026-03-23T16:11:48Z</time></trkpt><trkpt lat="44.111542674839264" lon="9.919035746598212"><ele>10.0</ele><time>2026-03-23T16:11:49Z</time></trkpt><trkpt lat="44.11160464396925" lon="9.91898905720879"><ele>10.0</ele><time>2026-03-23T16:11:50Z</time></trkpt><trkpt lat="44.11165297333758" lon="9.918929240625015"><ele>10.0</ele><time>2026-03-23T16:11:51Z</time></trkpt><trkpt lat="44.11174568688656" lon="9.918810871454054"><ele>10.0</ele><time>2026-03-23T16:11:53Z</time></trkpt><trkpt lat="44.111791706617005" lon="9.918744986465327"><ele>10.0</ele><time>2026-03-23T16:11:54Z</time></trkpt><trkpt lat="44.11182881073666" lon="9.918672069982135"><ele>10.0</ele><time>2026-03-23T16:11:55Z</time></trkpt><trkpt lat="44.11190768758519" lon="9.918548754526856"><ele>10.0</ele><time>2026-03-23T16:11:57Z</time></trkpt><trkpt lat="44.111986854523536" lon="9.918410078216333"><ele>10.0</ele><time>2026-03-23T16:11:59Z</time></trkpt><trkpt lat="44.11203561933381" lon="9.918347006303593"><ele>10.0</ele><time>2026-03-23T16:12:00Z</time></trkpt><trkpt lat="44.11208171424752" lon="9.918280475522783"><ele>10.0</ele><time>2026-03-23T16:12:01Z</time></trkpt><trkpt lat="44.11212765308357" lon="9.918210577820096"><ele>10.0</ele><time>2026-03-23T16:12:02Z</time></trkpt><trkpt lat="44.112174057113926" lon="9.918139864812643"><ele>10.0</ele><time>2026-03-23T16:12:03Z</time></trkpt><trkpt lat="44.11222268422912" lon="9.918068678253082"><ele>10.0</ele><time>2026-03-23T16:12:04Z</time></trkpt><trkpt lat="44.11226559669181" lon="9.917986841401722"><ele>10.0</ele><time>2026-03-23T16:12:05Z</time></trkpt><trkpt lat="44.112305598203754" lon="9.917906449205635"><ele>10.0</ele><time>2026-03-23T16:12:06Z</time></trkpt><trkpt lat="44.11235866187865" lon="9.917834794429533"><ele>10.0</ele><time>2026-03-23T16:12:07Z</time></trkpt><trkpt lat="44.11240067510107" lon="9.917750307624443"><ele>10.0</ele><time>2026-03-23T16:12:08Z</time></trkpt><trkpt lat="44.11244281310788" lon="9.917665569866688"><ele>10.0</ele><time>2026-03-23T16:12:09Z</time></trkpt><trkpt lat="44.11248765381946" lon="9.91757872218466"><ele>10.333333333333334</ele><time>2026-03-23T16:12:10Z</time></trkpt><trkpt lat="44.11253281759379" lon="9.917491449178197"><ele>10.666666666666668</ele><time>2026-03-23T16:12:11Z</time></trkpt><trkpt lat="44.11257817429821" lon="9.91740380341014"><ele>11.0</ele><time>2026-03-23T16:12:12Z</time></trkpt><trkpt lat="44.11262469282851" lon="9.917313912522413"><ele>11.333333333333334</ele><time>2026-03-23T16:12:13Z</time></trkpt><trkpt lat="44.112669416471135" lon="9.917227034842371"><ele>11.666666666666666</ele><time>2026-03-23T16:12:14Z</time></trkpt><trkpt lat="44.11271397306413" lon="9.917138970569985"><ele>12.0</ele><time>2026-03-23T16:12:15Z</time></trkpt><trkpt lat="44.1127586084308" lon="9.917050750661998"><ele>12.0</ele><time>2026-03-23T16:12:16Z</time></trkpt><trkpt lat="44.11280295096717" lon="9.916965782335675"><ele>12.0</ele><time>2026-03-23T16:12:17Z</time></trkpt><trkpt lat="44.112850424701186" lon="9.916879932434757"><ele>12.0</ele><time>2026-03-23T16:12:18Z</time></trkpt><trkpt lat="44.11289814853209" lon="9.916797257574732"><ele>12.0</ele><time>2026-03-23T16:12:19Z</time></trkpt><trkpt lat="44.11294557074893" lon="9.91671510532851"><ele>12.0</ele><time>2026-03-23T16:12:20Z</time></trkpt><trkpt lat="44.112991692987414" lon="9.91663520508111"><ele>12.0</ele><time>2026-03-23T16:12:21Z</time></trkpt><trkpt lat="44.113037823693446" lon="9.916555290656895"><ele>11.571428571428571</ele><time>2026-03-23T16:12:22Z</time></trkpt><trkpt lat="44.1130850629154" lon="9.91647230376801"><ele>11.142857142857142</ele><time>2026-03-23T16:12:23Z</time></trkpt><trkpt lat="44.1131316998675" lon="9.916390458453277"><ele>10.714285714285715</ele><time>2026-03-23T16:12:24Z</time></trkpt><trkpt lat="44.11317798974277" lon="9.916315913149056"><ele>10.285714285714285</ele><time>2026-03-23T16:12:25Z</time></trkpt><trkpt lat="44.113227218249875" lon="9.916239974138815"><ele>9.857142857142858</ele><time>2026-03-23T16:12:26Z</time></trkpt><trkpt lat="44.11327691412652" lon="9.91616247684164"><ele>9.428571428571429</ele><time>2026-03-23T16:12:27Z</time></trkpt><trkpt lat="44.11331400503468" lon="9.916076757474928"><ele>9.0</ele><time>2026-03-23T16:12:28Z</time></trkpt><trkpt lat="44.113366247197895" lon="9.916005841306626"><ele>9.000000000000002</ele><time>2026-03-23T16:12:29Z</time></trkpt><trkpt lat="44.11341619832706" lon="9.9159329651357"><ele>9.0</ele><time>2026-03-23T16:12:30Z</time></trkpt><trkpt lat="44.113470638933435" lon="9.915865615266584"><ele>9.0</ele><time>2026-03-23T16:12:31Z</time></trkpt><trkpt lat="44.11352693628046" lon="9.915801339624362"><ele>9.0</ele><time>2026-03-23T16:12:32Z</time></trkpt><trkpt lat="44.113585270747855" lon="9.915742938649178"><ele>9.0</ele><time>2026-03-23T16:12:33Z</time></trkpt><trkpt lat="44.11364490708532" lon="9.915691310108922"><ele>9.000000000000002</ele><time>2026-03-23T16:12:34Z</time></trkpt><trkpt lat="44.113706130710085" lon="9.915645472608832"><ele>9.0</ele><time>2026-03-23T16:12:35Z</time></trkpt><trkpt lat="44.113766832653674" lon="9.91560403776423"><ele>9.0</ele><time>2026-03-23T16:12:36Z</time></trkpt><trkpt lat="44.11383313711739" lon="9.915593559835028"><ele>9.0</ele><time>2026-03-23T16:12:37Z</time></trkpt><trkpt lat="44.11393961243869" lon="9.915525134517317"><ele>9.0</ele><time>2026-03-23T16:12:39Z</time></trkpt><trkpt lat="44.11404202201359" lon="9.915457545440873"><ele>9.0</ele><time>2026-03-23T16:12:41Z</time></trkpt><trkpt lat="44.11415508205913" lon="9.915393234745256"><ele>9.0</ele><time>2026-03-23T16:12:43Z</time></trkpt><trkpt lat="44.11426830394791" lon="9.915344065814198"><ele>9.0</ele><time>2026-03-23T16:12:45Z</time></trkpt><trkpt lat="44.11438532269275" lon="9.915301805676211"><ele>9.0</ele><time>2026-03-23T16:12:47Z</time></trkpt><trkpt lat="44.11444702804365" lon="9.915279913654524"><ele>9.0</ele><time>2026-03-23T16:12:48Z</time></trkpt><trkpt lat="44.11456444522936" lon="9.91524671194604"><ele>9.0</ele><time>2026-03-23T16:12:50Z</time></trkpt><trkpt lat="44.11467827131212" lon="9.915233109654073"><ele>9.0</ele><time>2026-03-23T16:12:52Z</time></trkpt><trkpt lat="44.11478522923348" lon="9.915232985150647"><ele>9.2</ele><time>2026-03-23T16:12:54Z</time></trkpt><trkpt lat="44.11479567608096" lon="9.91503049957776"><ele>9.4</ele><time>2026-03-23T16:12:56Z</time></trkpt><trkpt lat="44.11479506351347" lon="9.914925652208087"><ele>9.6</ele><time>2026-03-23T16:12:58Z</time></trkpt><trkpt lat="44.11492297800781" lon="9.914976278128881"><ele>9.8</ele><time>2026-03-23T16:13:02Z</time></trkpt><trkpt lat="44.11496435723505" lon="9.915072423629567"><ele>10.0</ele><time>2026-03-23T16:13:04Z</time></trkpt><trkpt lat="44.114968861141634" lon="9.91525026192005"><ele>10.0</ele><time>2026-03-23T16:13:05Z</time></trkpt><trkpt lat="44.11507541974221" lon="9.915214266530445"><ele>10.0</ele><time>2026-03-23T16:13:06Z</time></trkpt><trkpt lat="44.11516938227885" lon="9.915206387513907"><ele>10.0</ele><time>2026-03-23T16:13:08Z</time></trkpt><trkpt lat="44.11524420801295" lon="9.915200113147892"><ele>10.0</ele><time>2026-03-23T16:13:10Z</time></trkpt><trkpt lat="44.1152581737975" lon="9.914825594839678"><ele>10.0</ele><time>2026-03-23T16:13:13Z</time></trkpt><trkpt lat="44.11526873194759" lon="9.914700336877534"><ele>10.0</ele><time>2026-03-23T16:13:15Z</time></trkpt><trkpt lat="44.11528688086301" lon="9.91457252867722"><ele>10.0</ele><time>2026-03-23T16:13:17Z</time></trkpt><trkpt lat="44.115302290226396" lon="9.914440042683554"><ele>10.0</ele><time>2026-03-23T16:13:19Z</time></trkpt><trkpt lat="44.11531836666019" lon="9.914314121335469"><ele>10.0</ele><time>2026-03-23T16:13:21Z</time></trkpt><trkpt lat="44.115413579625034" lon="9.914295021309908"><ele>10.0</ele><time>2026-03-23T16:13:23Z</time></trkpt><trkpt lat="44.11549452774899" lon="9.914261333037151"><ele>10.0</ele><time>2026-03-23T16:13:25Z</time></trkpt><trkpt lat="44.11557840808973" lon="9.914210651148654"><ele>10.0</ele><time>2026-03-23T16:13:27Z</time></trkpt><trkpt lat="44.11559197910493" lon="9.914069514679122"><ele>10.0</ele><time>2026-03-23T16:13:29Z</time></trkpt><trkpt lat="44.115559632907825" lon="9.913913965186802"><ele>10.0</ele><time>2026-03-23T16:13:31Z</time></trkpt><trkpt lat="44.115544542332294" lon="9.913753795555492"><ele>10.2</ele><time>2026-03-23T16:13:33Z</time></trkpt><trkpt lat="44.11551720307397" lon="9.91360316178927"><ele>10.4</ele><time>2026-03-23T16:13:35Z</time></trkpt><trkpt lat="44.1154925835846" lon="9.913461010843365"><ele>10.600000000000001</ele><time>2026-03-23T16:13:37Z</time></trkpt><trkpt lat="44.11552265391525" lon="9.913324722302159"><ele>10.8</ele><time>2026-03-23T16:13:39Z</time></trkpt><trkpt lat="44.11562138584178" lon="9.91325875140655"><ele>11.0</ele><time>2026-03-23T16:13:41Z</time></trkpt><trkpt lat="44.11571996723494" lon="9.913237580332892"><ele>11.8</ele><time>2026-03-23T16:13:43Z</time></trkpt><trkpt lat="44.11581240921989" lon="9.913222002243323"><ele>12.600000000000001</ele><time>2026-03-23T16:13:45Z</time></trkpt><trkpt lat="44.11590801787869" lon="9.91320470120662"><ele>13.4</ele><time>2026-03-23T16:13:47Z</time></trkpt><trkpt lat="44.116014178455615" lon="9.91318553798061"><ele>14.2</ele><time>2026-03-23T16:13:49Z</time></trkpt><trkpt lat="44.11612558821569" lon="9.913154076178545"><ele>15.0</ele><time>2026-03-23T16:13:51Z</time></trkpt><trkpt lat="44.116231712348274" lon="9.913117252782888"><ele>15.0</ele><time>2026-03-23T16:13:53Z</time></trkpt><trkpt lat="44.116314216097905" lon="9.913027150449835"><ele>15.0</ele><time>2026-03-23T16:13:55Z</time></trkpt><trkpt lat="44.116302792291805" lon="9.912862141694005"><ele>15.0</ele><time>2026-03-23T16:13:57Z</time></trkpt><trkpt lat="44.11627603867904" lon="9.912703398869008"><ele>15.0</ele><time>2026-03-23T16:13:59Z</time></trkpt><trkpt lat="44.11622450183492" lon="9.912556158809767"><ele>15.8</ele><time>2026-03-23T16:14:01Z</time></trkpt><trkpt lat="44.11618928523057" lon="9.912427896644559"><ele>16.6</ele><time>2026-03-23T16:14:03Z</time></trkpt><trkpt lat="44.116184546218285" lon="9.912330119880494"><ele>17.4</ele><time>2026-03-23T16:14:06Z</time></trkpt><trkpt lat="44.1161823953198" lon="9.912211386057207"><ele>18.2</ele><time>2026-03-23T16:14:08Z</time></trkpt><trkpt lat="44.11617664907652" lon="9.912077458593453"><ele>19.0</ele><time>2026-03-23T16:14:10Z</time></trkpt><trkpt lat="44.11620319803447" lon="9.911934799056901"><ele>19.0</ele><time>2026-03-23T16:14:12Z</time></trkpt><trkpt lat="44.11622412974173" lon="9.911774283670493"><ele>19.0</ele><time>2026-03-23T16:14:14Z</time></trkpt><trkpt lat="44.11620998808046" lon="9.911599713293995"><ele>19.0</ele><time>2026-03-23T16:14:16Z</time></trkpt><trkpt lat="44.116196783448764" lon="9.911511897887124"><ele>19.0</ele><time>2026-03-23T16:14:17Z</time></trkpt><trkpt lat="44.11618234341942" lon="9.911423551897375"><ele>19.0</ele><time>2026-03-23T16:14:18Z</time></trkpt><trkpt lat="44.11615841775175" lon="9.911251138491053"><ele>18.833333333333332</ele><time>2026-03-23T16:14:20Z</time></trkpt><trkpt lat="44.11612252223693" lon="9.911086832324557"><ele>18.666666666666664</ele><time>2026-03-23T16:14:22Z</time></trkpt><trkpt lat="44.11610633829033" lon="9.911001252785375"><ele>18.5</ele><time>2026-03-23T16:14:23Z</time></trkpt><trkpt lat="44.1160751276014" lon="9.91082900992343"><ele>18.333333333333332</ele><time>2026-03-23T16:14:25Z</time></trkpt><trkpt lat="44.11606265751549" lon="9.910739035669136"><ele>18.166666666666668</ele><time>2026-03-23T16:14:26Z</time></trkpt><trkpt lat="44.11605371502429" lon="9.910643390081397"><ele>18.0</ele><time>2026-03-23T16:14:27Z</time></trkpt><trkpt lat="44.11604924230157" lon="9.910538183130274"><ele>18.142857142857146</ele><time>2026-03-23T16:14:28Z</time></trkpt><trkpt lat="44.11604492439874" lon="9.910437482666122"><ele>18.285714285714285</ele><time>2026-03-23T16:14:29Z</time></trkpt><trkpt lat="44.11604319643541" lon="9.910337185976077"><ele>18.42857142857143</ele><time>2026-03-23T16:14:30Z</time></trkpt><trkpt lat="44.11604080255146" lon="9.910233179836824"><ele>18.571428571428573</ele><time>2026-03-23T16:14:31Z</time></trkpt><trkpt lat="44.1160358519579" lon="9.910126207325527"><ele>18.714285714285715</ele><time>2026-03-23T16:14:32Z</time></trkpt><trkpt lat="44.11603320005621" lon="9.910019627326585"><ele>18.857142857142858</ele><time>2026-03-23T16:14:33Z</time></trkpt><trkpt lat="44.11603107147041" lon="9.909914873019119"><ele>19.0</ele><time>2026-03-23T16:14:34Z</time></trkpt><trkpt lat="44.11602919996266" lon="9.909809582426641"><ele>19.0</ele><time>2026-03-23T16:14:35Z</time></trkpt><trkpt lat="44.11602934415603" lon="9.909702454092638"><ele>19.0</ele><time>2026-03-23T16:14:36Z</time></trkpt><trkpt lat="44.11602970900427" lon="9.909599104638179"><ele>19.0</ele><time>2026-03-23T16:14:37Z</time></trkpt><trkpt lat="44.11603162963202" lon="9.90949758694378"><ele>19.0</ele><time>2026-03-23T16:14:38Z</time></trkpt><trkpt lat="44.11603186996802" lon="9.909403078925838"><ele>19.0</ele><time>2026-03-23T16:14:39Z</time></trkpt><trkpt lat="44.116039086196736" lon="9.909311678522624"><ele>19.0</ele><time>2026-03-23T16:14:40Z</time></trkpt><trkpt lat="44.11605307980507" lon="9.909221187370383"><ele>19.0</ele><time>2026-03-23T16:14:41Z</time></trkpt><trkpt lat="44.116065117913344" lon="9.9091312946138"><ele>19.285714285714285</ele><time>2026-03-23T16:14:42Z</time></trkpt><trkpt lat="44.11607283260907" lon="9.909043782245403"><ele>19.571428571428573</ele><time>2026-03-23T16:14:43Z</time></trkpt><trkpt lat="44.1160819415347" lon="9.90895528946118"><ele>19.857142857142858</ele><time>2026-03-23T16:14:44Z</time></trkpt><trkpt lat="44.11608682765689" lon="9.908865750548138"><ele>20.142857142857142</ele><time>2026-03-23T16:14:45Z</time></trkpt><trkpt lat="44.116089773205594" lon="9.908776245278148"><ele>20.42857142857143</ele><time>2026-03-23T16:14:46Z</time></trkpt><trkpt lat="44.11608955730612" lon="9.908685981690677"><ele>20.714285714285715</ele><time>2026-03-23T16:14:47Z</time></trkpt><trkpt lat="44.11610582607335" lon="9.908532154999506"><ele>21.0</ele><time>2026-03-23T16:14:49Z</time></trkpt><trkpt lat="44.1161066948417" lon="9.90839625385913"><ele>21.0</ele><time>2026-03-23T16:14:51Z</time></trkpt><trkpt lat="44.11610375157964" lon="9.908279751075515"><ele>21.0</ele><time>2026-03-23T16:14:53Z</time></trkpt><trkpt lat="44.11609892031853" lon="9.908184197848392"><ele>21.0</ele><time>2026-03-23T16:14:55Z</time></trkpt><trkpt lat="44.11601700994621" lon="9.908226417765533"><ele>21.0</ele><time>2026-03-23T16:14:58Z</time></trkpt><trkpt lat="44.11588532351854" lon="9.908356859250159"><ele>21.0</ele><time>2026-03-23T16:14:59Z</time></trkpt><trkpt lat="44.11607080253733" lon="9.90853719537507"><ele>21.0</ele><time>2026-03-23T16:15:20Z</time></trkpt><trkpt lat="44.116065903358134" lon="9.908647073646183"><ele>21.0</ele><time>2026-03-23T16:15:23Z</time></trkpt><trkpt lat="44.11607181137513" lon="9.908748308645775"><ele>21.0</ele><time>2026-03-23T16:15:25Z</time></trkpt><trkpt lat="44.11606711533019" lon="9.908922824819518"><ele>21.0</ele><time>2026-03-23T16:15:27Z</time></trkpt><trkpt lat="44.11605766541941" lon="9.909015178645618"><ele>21.0</ele><time>2026-03-23T16:15:28Z</time></trkpt><trkpt lat="44.116044264981696" lon="9.909110611048549"><ele>21.0</ele><time>2026-03-23T16:15:29Z</time></trkpt><trkpt lat="44.1160303540395" lon="9.90921023746064"><ele>20.714285714285715</ele><time>2026-03-23T16:15:30Z</time></trkpt><trkpt lat="44.116017712770024" lon="9.909307266220551"><ele>20.42857142857143</ele><time>2026-03-23T16:15:31Z</time></trkpt><trkpt lat="44.116007390105246" lon="9.90940466413053"><ele>20.142857142857142</ele><time>2026-03-23T16:15:32Z</time></trkpt><trkpt lat="44.11599976188695" lon="9.909499405490207"><ele>19.857142857142858</ele><time>2026-03-23T16:15:33Z</time></trkpt><trkpt lat="44.1159942930189" lon="9.909592134540674"><ele>19.571428571428573</ele><time>2026-03-23T16:15:34Z</time></trkpt><trkpt lat="44.11599705579023" lon="9.909680653149719"><ele>19.285714285714285</ele><time>2026-03-23T16:15:35Z</time></trkpt><trkpt lat="44.11600093027314" lon="9.909782438545173"><ele>19.0</ele><time>2026-03-23T16:15:36Z</time></trkpt><trkpt lat="44.11600758852409" lon="9.90989489730761"><ele>19.0</ele><time>2026-03-23T16:15:37Z</time></trkpt><trkpt lat="44.11601220105122" lon="9.910010913937361"><ele>19.0</ele><time>2026-03-23T16:15:38Z</time></trkpt><trkpt lat="44.11601273048045" lon="9.91012812115895"><ele>19.0</ele><time>2026-03-23T16:15:39Z</time></trkpt><trkpt lat="44.11601369255172" lon="9.910247837269187"><ele>19.0</ele><time>2026-03-23T16:15:40Z</time></trkpt><trkpt lat="44.11602056921539" lon="9.91037422070404"><ele>19.0</ele><time>2026-03-23T16:15:41Z</time></trkpt><trkpt lat="44.11602479678664" lon="9.910505440822734"><ele>19.0</ele><time>2026-03-23T16:15:42Z</time></trkpt><trkpt lat="44.116031819731845" lon="9.910637960086985"><ele>19.166666666666664</ele><time>2026-03-23T16:15:43Z</time></trkpt><trkpt lat="44.11604107894681" lon="9.910762787445998"><ele>19.333333333333332</ele><time>2026-03-23T16:15:44Z</time></trkpt><trkpt lat="44.11606013080315" lon="9.91088623552833"><ele>19.5</ele><time>2026-03-23T16:15:45Z</time></trkpt><trkpt lat="44.11608219614454" lon="9.911002127906027"><ele>19.666666666666668</ele><time>2026-03-23T16:15:46Z</time></trkpt><trkpt lat="44.11610308959602" lon="9.911120034753656"><ele>19.833333333333336</ele><time>2026-03-23T16:15:47Z</time></trkpt><trkpt lat="44.11612448417955" lon="9.911241105642725"><ele>20.0</ele><time>2026-03-23T16:15:48Z</time></trkpt><trkpt lat="44.11614566640983" lon="9.911362206074383"><ele>19.8</ele><time>2026-03-23T16:15:49Z</time></trkpt><trkpt lat="44.11616142564349" lon="9.911461944432517"><ele>19.6</ele><time>2026-03-23T16:15:50Z</time></trkpt><trkpt lat="44.11614902565813" lon="9.91161761680627"><ele>19.4</ele><time>2026-03-23T16:15:52Z</time></trkpt><trkpt lat="44.11620709068286" lon="9.91181611027694"><ele>19.2</ele><time>2026-03-23T16:15:54Z</time></trkpt><trkpt lat="44.116182407755176" lon="9.911909635743399"><ele>19.0</ele><time>2026-03-23T16:15:55Z</time></trkpt><trkpt lat="44.116032701201725" lon="9.912101512511146"><ele>19.0</ele><time>2026-03-23T16:15:56Z</time></trkpt><trkpt lat="44.11595675522172" lon="9.912101797740407"><ele>19.0</ele><time>2026-03-23T16:15:57Z</time></trkpt><trkpt lat="44.11588747141166" lon="9.911767169262808"><ele>19.0</ele><time>2026-03-23T16:15:59Z</time></trkpt><trkpt lat="44.11589054943278" lon="9.91145027016161"><ele>18.8</ele><time>2026-03-23T16:16:01Z</time></trkpt><trkpt lat="44.1159522812895" lon="9.911331014579181"><ele>18.599999999999998</ele><time>2026-03-23T16:16:03Z</time></trkpt><trkpt lat="44.116054144553736" lon="9.911298770484693"><ele>18.4</ele><time>2026-03-23T16:16:05Z</time></trkpt><trkpt lat="44.11613311160507" lon="9.91125435669601"><ele>18.2</ele><time>2026-03-23T16:16:13Z</time></trkpt><trkpt lat="44.11613789419207" lon="9.911148628642607"><ele>18.0</ele><time>2026-03-23T16:16:15Z</time></trkpt><trkpt lat="44.11610260364615" lon="9.911006098895891"><ele>18.333333333333332</ele><time>2026-03-23T16:16:17Z</time></trkpt><trkpt lat="44.11608898268338" lon="9.91085029458342"><ele>18.666666666666668</ele><time>2026-03-23T16:16:19Z</time></trkpt><trkpt lat="44.11607375196628" lon="9.910760474790257"><ele>19.0</ele><time>2026-03-23T16:16:20Z</time></trkpt><trkpt lat="44.11605906616366" lon="9.910665011903697"><ele>19.333333333333336</ele><time>2026-03-23T16:16:21Z</time></trkpt><trkpt lat="44.11605561218377" lon="9.91056221425552"><ele>19.666666666666668</ele><time>2026-03-23T16:16:22Z</time></trkpt><trkpt lat="44.11605596624963" lon="9.910457330407219"><ele>20.0</ele><time>2026-03-23T16:16:23Z</time></trkpt><trkpt lat="44.11605384561264" lon="9.91035039785728"><ele>20.0</ele><time>2026-03-23T16:16:24Z</time></trkpt><trkpt lat="44.11605115778115" lon="9.910245362756088"><ele>20.0</ele><time>2026-03-23T16:16:25Z</time></trkpt><trkpt lat="44.11604915348568" lon="9.910147931589853"><ele>20.0</ele><time>2026-03-23T16:16:26Z</time></trkpt><trkpt lat="44.11604718375836" lon="9.910049614778176"><ele>20.0</ele><time>2026-03-23T16:16:27Z</time></trkpt><trkpt lat="44.116045108964144" lon="9.909948762928767"><ele>20.0</ele><time>2026-03-23T16:16:28Z</time></trkpt><trkpt lat="44.11604418774247" lon="9.90984300594157"><ele>20.0</ele><time>2026-03-23T16:16:29Z</time></trkpt><trkpt lat="44.11604245368386" lon="9.90974074319865"><ele>20.0</ele><time>2026-03-23T16:16:30Z</time></trkpt><trkpt lat="44.11604097324815" lon="9.909633851283584"><ele>19.833333333333336</ele><time>2026-03-23T16:16:31Z</time></trkpt><trkpt lat="44.11604042790157" lon="9.909523734731659"><ele>19.666666666666668</ele><time>2026-03-23T16:16:32Z</time></trkpt><trkpt lat="44.11604343431821" lon="9.90941583279232"><ele>19.5</ele><time>2026-03-23T16:16:33Z</time></trkpt><trkpt lat="44.116052476705136" lon="9.909302465447038"><ele>19.333333333333332</ele><time>2026-03-23T16:16:34Z</time></trkpt><trkpt lat="44.116065211578075" lon="9.909183513405857"><ele>19.166666666666664</ele><time>2026-03-23T16:16:35Z</time></trkpt><trkpt lat="44.11607996355257" lon="9.909064863973706"><ele>19.0</ele><time>2026-03-23T16:16:36Z</time></trkpt><trkpt lat="44.11609276892005" lon="9.908943439423522"><ele>19.333333333333332</ele><time>2026-03-23T16:16:37Z</time></trkpt><trkpt lat="44.11609943750278" lon="9.908820790705194"><ele>19.666666666666664</ele><time>2026-03-23T16:16:38Z</time></trkpt><trkpt lat="44.116102911713284" lon="9.908702134942896"><ele>20.0</ele><time>2026-03-23T16:16:39Z</time></trkpt><trkpt lat="44.11610510024721" lon="9.908583713677382"><ele>20.333333333333332</ele><time>2026-03-23T16:16:40Z</time></trkpt><trkpt lat="44.11607855124967" lon="9.908473987322743"><ele>20.666666666666668</ele><time>2026-03-23T16:16:41Z</time></trkpt><trkpt lat="44.11608102940445" lon="9.908369960022227"><ele>21.0</ele><time>2026-03-23T16:16:42Z</time></trkpt><trkpt lat="44.116079064062895" lon="9.908268848122406"><ele>21.333333333333332</ele><time>2026-03-23T16:16:43Z</time></trkpt><trkpt lat="44.11607121557238" lon="9.908167931212768"><ele>21.666666666666668</ele><time>2026-03-23T16:16:44Z</time></trkpt><trkpt lat="44.11608692228229" lon="9.908061649834037"><ele>22.0</ele><time>2026-03-23T16:16:45Z</time></trkpt><trkpt lat="44.11607858022614" lon="9.907960942278851"><ele>22.333333333333336</ele><time>2026-03-23T16:16:46Z</time></trkpt><trkpt lat="44.11604490142074" lon="9.90786746573446"><ele>22.666666666666668</ele><time>2026-03-23T16:16:47Z</time></trkpt><trkpt lat="44.11599328558965" lon="9.907795139204397"><ele>23.0</ele><time>2026-03-23T16:16:48Z</time></trkpt><trkpt lat="44.11595291445968" lon="9.907670601859678"><ele>23.0</ele><time>2026-03-23T16:16:50Z</time></trkpt><trkpt lat="44.11598286751259" lon="9.907836390971212"><ele>23.0</ele><time>2026-03-23T16:16:55Z</time></trkpt><trkpt lat="44.11602712136219" lon="9.907992465497397"><ele>23.0</ele><time>2026-03-23T16:16:57Z</time></trkpt><trkpt lat="44.11603687773465" lon="9.908083484277082"><ele>23.0</ele><time>2026-03-23T16:16:58Z</time></trkpt><trkpt lat="44.11604799559025" lon="9.908176602666515"><ele>23.0</ele><time>2026-03-23T16:16:59Z</time></trkpt><trkpt lat="44.11605417771647" lon="9.908268015622975"><ele>23.0</ele><time>2026-03-23T16:17:00Z</time></trkpt><trkpt lat="44.11605817912745" lon="9.908364827093129"><ele>23.0</ele><time>2026-03-23T16:17:02Z</time></trkpt><trkpt lat="44.11611258119562" lon="9.90830229624736"><ele>23.0</ele><time>2026-03-23T16:24:22Z</time></trkpt><trkpt lat="44.11608869320714" lon="9.90815201820877"><ele>23.0</ele><time>2026-03-23T16:24:24Z</time></trkpt><trkpt lat="44.11605637014442" lon="9.907995989714392"><ele>23.0</ele><time>2026-03-23T16:24:26Z</time></trkpt><trkpt lat="44.11602508096885" lon="9.907848426970645"><ele>23.0</ele><time>2026-03-23T16:24:28Z</time></trkpt><trkpt lat="44.115952534469486" lon="9.90771685502355"><ele>23.0</ele><time>2026-03-23T16:24:30Z</time></trkpt><trkpt lat="44.11585464913682" lon="9.90761164139633"><ele>23.0</ele><time>2026-03-23T16:24:32Z</time></trkpt><trkpt lat="44.11579029228383" lon="9.907609803113512"><ele>23.0</ele><time>2026-03-23T16:24:33Z</time></trkpt><trkpt lat="44.11567297196638" lon="9.907592177640481"><ele>23.0</ele><time>2026-03-23T16:24:35.001Z</time></trkpt><trkpt lat="44.11557299503654" lon="9.907524140592413"><ele>23.0</ele><time>2026-03-23T16:24:37.001Z</time></trkpt><trkpt lat="44.115486775928765" lon="9.9074617028142"><ele>26.333333333333336</ele><time>2026-03-23T16:24:39.001Z</time></trkpt><trkpt lat="44.11541270164532" lon="9.90744187312371"><ele>29.666666666666668</ele><time>2026-03-23T16:24:41.001Z</time></trkpt><trkpt lat="44.11533168894806" lon="9.90744580535656"><ele>33.0</ele><time>2026-03-23T16:24:43.001Z</time></trkpt><trkpt lat="44.11524940285369" lon="9.907459833862557"><ele>36.333333333333336</ele><time>2026-03-23T16:24:45.001Z</time></trkpt><trkpt lat="44.11518221490185" lon="9.907481853338746"><ele>39.66666666666667</ele><time>2026-03-23T16:24:47.001Z</time></trkpt><trkpt lat="44.11510021410471" lon="9.907497277040676"><ele>43.0</ele><time>2026-03-23T16:24:51.001Z</time></trkpt><trkpt lat="44.115026295366654" lon="9.90742285350839"><ele>43.00000000000001</ele><time>2026-03-23T16:24:54.001Z</time></trkpt><trkpt lat="44.115080712287266" lon="9.907321536159927"><ele>43.0</ele><time>2026-03-23T16:24:56.001Z</time></trkpt><trkpt lat="44.11513797326994" lon="9.907271694421159"><ele>43.0</ele><time>2026-03-23T16:24:58.001Z</time></trkpt><trkpt lat="44.11520570454672" lon="9.907228321560012"><ele>43.0</ele><time>2026-03-23T16:25:01Z</time></trkpt><trkpt lat="44.115261359296355" lon="9.907167920744499"><ele>43.0</ele><time>2026-03-23T16:25:04Z</time></trkpt><trkpt lat="44.115204935992985" lon="9.907230221607692"><ele>43.00000000000001</ele><time>2026-03-23T16:25:15Z</time></trkpt><trkpt lat="44.115137087729465" lon="9.907200681107188"><ele>43.0</ele><time>2026-03-23T16:25:19Z</time></trkpt><trkpt lat="44.11506389639352" lon="9.907215803243332"><ele>43.00000000000001</ele><time>2026-03-23T16:25:23Z</time></trkpt><trkpt lat="44.11499032397149" lon="9.907172235634182"><ele>43.0</ele><time>2026-03-23T16:25:27Z</time></trkpt><trkpt lat="44.11493449152936" lon="9.90712352633228"><ele>43.0</ele><time>2026-03-23T16:25:30Z</time></trkpt><trkpt lat="44.114863443786106" lon="9.907087675606899"><ele>43.0</ele><time>2026-03-23T16:25:34Z</time></trkpt><trkpt lat="44.11480163661124" lon="9.907067312750364"><ele>43.0</ele><time>2026-03-23T16:25:37Z</time></trkpt><trkpt lat="44.114734341123004" lon="9.907027547979782"><ele>43.00000000000001</ele><time>2026-03-23T16:25:42Z</time></trkpt><trkpt lat="44.11469269739713" lon="9.906948050437787"><ele>43.0</ele><time>2026-03-23T16:25:47Z</time></trkpt><trkpt lat="44.11466160580921" lon="9.906849116834263"><ele>45.5</ele><time>2026-03-23T16:25:50Z</time></trkpt><trkpt lat="44.114625269863645" lon="9.906763538011383"><ele>48.0</ele><time>2026-03-23T16:25:53Z</time></trkpt><trkpt lat="44.114564052028555" lon="9.906691751830696"><ele>50.5</ele><time>2026-03-23T16:25:56Z</time></trkpt><trkpt lat="44.114502406765304" lon="9.90662680632189"><ele>53.0</ele><time>2026-03-23T16:25:59Z</time></trkpt><trkpt lat="44.11443029140179" lon="9.90656440088871"><ele>55.49999999999999</ele><time>2026-03-23T16:26:02Z</time></trkpt><trkpt lat="44.11437692706906" lon="9.906516357491006"><ele>58.0</ele><time>2026-03-23T16:26:04Z</time></trkpt><trkpt lat="44.11430502551892" lon="9.90644236924341"><ele>59.166666666666664</ele><time>2026-03-23T16:26:07Z</time></trkpt><trkpt lat="44.114230667310764" lon="9.90639415680397"><ele>60.33333333333333</ele><time>2026-03-23T16:26:10Z</time></trkpt><trkpt lat="44.11417345752318" lon="9.906344092989745"><ele>61.5</ele><time>2026-03-23T16:26:12Z</time></trkpt><trkpt lat="44.1141000504586" lon="9.906282541048448"><ele>62.66666666666667</ele><time>2026-03-23T16:26:15Z</time></trkpt><trkpt lat="44.11404217106172" lon="9.906208023707268"><ele>63.833333333333336</ele><time>2026-03-23T16:26:18Z</time></trkpt><trkpt lat="44.1139871982808" lon="9.906127863688905"><ele>65.0</ele><time>2026-03-23T16:26:21Z</time></trkpt><trkpt lat="44.11395726471481" lon="9.906043347391524"><ele>68.0</ele><time>2026-03-23T16:26:24Z</time></trkpt><trkpt lat="44.11392402698568" lon="9.905968773234108"><ele>71.0</ele><time>2026-03-23T16:26:27Z</time></trkpt><trkpt lat="44.113865087472035" lon="9.90588478296675"><ele>74.0</ele><time>2026-03-23T16:26:30Z</time></trkpt><trkpt lat="44.11380290865542" lon="9.90581790345403"><ele>77.0</ele><time>2026-03-23T16:26:33Z</time></trkpt><trkpt lat="44.11384101611116" lon="9.9057468562983"><ele>80.0</ele><time>2026-03-23T16:26:38Z</time></trkpt><trkpt lat="44.11389017753916" lon="9.905674946646812"><ele>83.0</ele><time>2026-03-23T16:26:48.001Z</time></trkpt><trkpt lat="44.113976085576944" lon="9.905744392362053"><ele>83.0</ele><time>2026-03-23T16:26:50.001Z</time></trkpt><trkpt lat="44.11402668048922" lon="9.90582896752019"><ele>83.0</ele><time>2026-03-23T16:26:53.001Z</time></trkpt><trkpt lat="44.11408455761663" lon="9.905872188665246"><ele>83.0</ele><time>2026-03-23T16:26:57Z</time></trkpt><trkpt lat="44.11412879798674" lon="9.905944649107614"><ele>83.0</ele><time>2026-03-23T16:27:19Z</time></trkpt><trkpt lat="44.11405465436551" lon="9.906065266866584"><ele>83.0</ele><time>2026-03-23T16:27:22Z</time></trkpt><trkpt lat="44.11398627179985" lon="9.90609223288578"><ele>83.0</ele><time>2026-03-23T16:27:24Z</time></trkpt><trkpt lat="44.11392201242359" lon="9.906101978476839"><ele>84.0</ele><time>2026-03-23T16:28:12Z</time></trkpt><trkpt lat="44.11402137183291" lon="9.906094621372361"><ele>84.0</ele><time>2026-03-23T16:28:21Z</time></trkpt><trkpt lat="44.11398277143091" lon="9.906164313816086"><ele>84.0</ele><time>2026-03-23T16:28:25Z</time></trkpt></trkseg></trk></gpx>